<?xml version="1.0" encoding="UTF-8" standalone="no" ?>
<gpx xmlns="http://www.topografix.com/GPX/1/1" xmlns:xsi="http://www.w3.org/2001/XMLSchema-instance" xsi:schemaLocation="http://www.topografix.com/GPX/1/1 http://www.topografix.com/GPX/1/1/gpx.xsd" version="1.1" creator="VisuGPX - https://www.visugpx.com">
  <metadata>
    <name>2016-01-06 - CvC, autour de Breisach</name>
    <desc><![CDATA[2016-01-06 - CvC, autour de Breisach - 33 participants - guide : Daniel Meier]]></desc>
  </metadata>
  <trk>
    <name><![CDATA[JAN-06-16 16:55:36]]></name>
    <trkseg>
      <trkpt lat="48.0254" lon="7.58744">
        <ele>189.52</ele>
        <time>2016-01-06T08:05:18Z</time>
      </trkpt>
      <trkpt lat="48.02541" lon="7.58746">
        <ele>188.56</ele>
        <time>2016-01-06T08:05:48Z</time>
      </trkpt>
      <trkpt lat="48.02541" lon="7.58746">
        <ele>189.04</ele>
        <time>2016-01-06T08:06:22Z</time>
      </trkpt>
      <trkpt lat="48.02542" lon="7.58748">
        <ele>187.59</ele>
        <time>2016-01-06T08:06:56Z</time>
      </trkpt>
      <trkpt lat="48.02542" lon="7.58748">
        <ele>189.52</ele>
        <time>2016-01-06T08:06:59Z</time>
      </trkpt>
      <trkpt lat="48.02542" lon="7.58748">
        <ele>188.56</ele>
        <time>2016-01-06T08:07:01Z</time>
      </trkpt>
      <trkpt lat="48.02546" lon="7.58752">
        <ele>188.08</ele>
        <time>2016-01-06T08:07:35Z</time>
      </trkpt>
      <trkpt lat="48.02547" lon="7.58755">
        <ele>188.08</ele>
        <time>2016-01-06T08:07:56Z</time>
      </trkpt>
      <trkpt lat="48.02547" lon="7.58757">
        <ele>188.56</ele>
        <time>2016-01-06T08:08:38Z</time>
      </trkpt>
      <trkpt lat="48.02547" lon="7.58756">
        <ele>188.08</ele>
        <time>2016-01-06T08:09:02Z</time>
      </trkpt>
      <trkpt lat="48.02547" lon="7.58756">
        <ele>187.59</ele>
        <time>2016-01-06T08:09:36Z</time>
      </trkpt>
      <trkpt lat="48.02547" lon="7.58755">
        <ele>188.08</ele>
        <time>2016-01-06T08:10:15Z</time>
      </trkpt>
      <trkpt lat="48.02547" lon="7.58755">
        <ele>187.59</ele>
        <time>2016-01-06T08:11:27Z</time>
      </trkpt>
      <trkpt lat="48.02547" lon="7.58755">
        <ele>187.59</ele>
        <time>2016-01-06T08:12:06Z</time>
      </trkpt>
      <trkpt lat="48.02547" lon="7.58755">
        <ele>188.08</ele>
        <time>2016-01-06T08:12:30Z</time>
      </trkpt>
      <trkpt lat="48.02546" lon="7.58756">
        <ele>188.08</ele>
        <time>2016-01-06T08:13:02Z</time>
      </trkpt>
      <trkpt lat="48.02547" lon="7.58755">
        <ele>187.59</ele>
        <time>2016-01-06T08:13:45Z</time>
      </trkpt>
      <trkpt lat="48.02547" lon="7.58756">
        <ele>188.08</ele>
        <time>2016-01-06T08:14:13Z</time>
      </trkpt>
      <trkpt lat="48.02547" lon="7.58756">
        <ele>187.59</ele>
        <time>2016-01-06T08:14:51Z</time>
      </trkpt>
      <trkpt lat="48.02547" lon="7.58762">
        <ele>187.59</ele>
        <time>2016-01-06T08:15:16Z</time>
      </trkpt>
      <trkpt lat="48.02529" lon="7.58785">
        <ele>188.08</ele>
        <time>2016-01-06T08:15:40Z</time>
      </trkpt>
      <trkpt lat="48.02514" lon="7.5879">
        <ele>187.59</ele>
        <time>2016-01-06T08:15:58Z</time>
      </trkpt>
      <trkpt lat="48.02493" lon="7.58799">
        <ele>187.11</ele>
        <time>2016-01-06T08:16:36Z</time>
      </trkpt>
      <trkpt lat="48.02477" lon="7.58841">
        <ele>187.59</ele>
        <time>2016-01-06T08:19:09Z</time>
      </trkpt>
      <trkpt lat="48.02473" lon="7.58804">
        <ele>187.59</ele>
        <time>2016-01-06T08:19:29Z</time>
      </trkpt>
      <trkpt lat="48.0247" lon="7.58803">
        <ele>187.11</ele>
        <time>2016-01-06T08:19:32Z</time>
      </trkpt>
      <trkpt lat="48.02445" lon="7.58789">
        <ele>188.08</ele>
        <time>2016-01-06T08:19:55Z</time>
      </trkpt>
      <trkpt lat="48.02423" lon="7.58779">
        <ele>189.04</ele>
        <time>2016-01-06T08:20:16Z</time>
      </trkpt>
      <trkpt lat="48.02406" lon="7.58771">
        <ele>189.52</ele>
        <time>2016-01-06T08:20:29Z</time>
      </trkpt>
      <trkpt lat="48.02384" lon="7.58778">
        <ele>188.08</ele>
        <time>2016-01-06T08:20:53Z</time>
      </trkpt>
      <trkpt lat="48.02361" lon="7.58792">
        <ele>190</ele>
        <time>2016-01-06T08:21:14Z</time>
      </trkpt>
      <trkpt lat="48.02352" lon="7.58794">
        <ele>190</ele>
        <time>2016-01-06T08:21:38Z</time>
      </trkpt>
      <trkpt lat="48.02334" lon="7.58801">
        <ele>189.04</ele>
        <time>2016-01-06T08:22:03Z</time>
      </trkpt>
      <trkpt lat="48.02321" lon="7.58808">
        <ele>186.15</ele>
        <time>2016-01-06T08:22:21Z</time>
      </trkpt>
      <trkpt lat="48.0232" lon="7.58814">
        <ele>188.08</ele>
        <time>2016-01-06T08:22:48Z</time>
      </trkpt>
      <trkpt lat="48.02322" lon="7.5884">
        <ele>187.59</ele>
        <time>2016-01-06T08:23:08Z</time>
      </trkpt>
      <trkpt lat="48.02324" lon="7.58851">
        <ele>187.11</ele>
        <time>2016-01-06T08:23:14Z</time>
      </trkpt>
      <trkpt lat="48.02328" lon="7.589">
        <ele>187.11</ele>
        <time>2016-01-06T08:23:42Z</time>
      </trkpt>
      <trkpt lat="48.02329" lon="7.58949">
        <ele>187.11</ele>
        <time>2016-01-06T08:24:05Z</time>
      </trkpt>
      <trkpt lat="48.0233" lon="7.58986">
        <ele>186.63</ele>
        <time>2016-01-06T08:24:27Z</time>
      </trkpt>
      <trkpt lat="48.02332" lon="7.59029">
        <ele>187.11</ele>
        <time>2016-01-06T08:24:53Z</time>
      </trkpt>
      <trkpt lat="48.0232" lon="7.59074">
        <ele>187.11</ele>
        <time>2016-01-06T08:25:16Z</time>
      </trkpt>
      <trkpt lat="48.0231" lon="7.59109">
        <ele>186.63</ele>
        <time>2016-01-06T08:25:39Z</time>
      </trkpt>
      <trkpt lat="48.02308" lon="7.59115">
        <ele>186.63</ele>
        <time>2016-01-06T08:25:43Z</time>
      </trkpt>
      <trkpt lat="48.02296" lon="7.59161">
        <ele>187.11</ele>
        <time>2016-01-06T08:26:08Z</time>
      </trkpt>
      <trkpt lat="48.02288" lon="7.59194">
        <ele>187.59</ele>
        <time>2016-01-06T08:26:33Z</time>
      </trkpt>
      <trkpt lat="48.02273" lon="7.59245">
        <ele>187.59</ele>
        <time>2016-01-06T08:27:01Z</time>
      </trkpt>
      <trkpt lat="48.02261" lon="7.5927">
        <ele>187.11</ele>
        <time>2016-01-06T08:27:24Z</time>
      </trkpt>
      <trkpt lat="48.02233" lon="7.59315">
        <ele>186.63</ele>
        <time>2016-01-06T08:27:50Z</time>
      </trkpt>
      <trkpt lat="48.02222" lon="7.5934">
        <ele>187.11</ele>
        <time>2016-01-06T08:28:12Z</time>
      </trkpt>
      <trkpt lat="48.02204" lon="7.59382">
        <ele>186.63</ele>
        <time>2016-01-06T08:28:37Z</time>
      </trkpt>
      <trkpt lat="48.02187" lon="7.59417">
        <ele>185.67</ele>
        <time>2016-01-06T08:29:05Z</time>
      </trkpt>
      <trkpt lat="48.02163" lon="7.59452">
        <ele>186.63</ele>
        <time>2016-01-06T08:29:32Z</time>
      </trkpt>
      <trkpt lat="48.02148" lon="7.59475">
        <ele>187.11</ele>
        <time>2016-01-06T08:29:51Z</time>
      </trkpt>
      <trkpt lat="48.02125" lon="7.59508">
        <ele>186.63</ele>
        <time>2016-01-06T08:30:19Z</time>
      </trkpt>
      <trkpt lat="48.02106" lon="7.59528">
        <ele>186.63</ele>
        <time>2016-01-06T08:30:41Z</time>
      </trkpt>
      <trkpt lat="48.02075" lon="7.59553">
        <ele>186.63</ele>
        <time>2016-01-06T08:31:05Z</time>
      </trkpt>
      <trkpt lat="48.02044" lon="7.59572">
        <ele>187.11</ele>
        <time>2016-01-06T08:31:33Z</time>
      </trkpt>
      <trkpt lat="48.0202" lon="7.59584">
        <ele>190</ele>
        <time>2016-01-06T08:32:02Z</time>
      </trkpt>
      <trkpt lat="48.0202" lon="7.59586">
        <ele>190</ele>
        <time>2016-01-06T08:32:26Z</time>
      </trkpt>
      <trkpt lat="48.02019" lon="7.59589">
        <ele>190.48</ele>
        <time>2016-01-06T08:33:21Z</time>
      </trkpt>
      <trkpt lat="48.02018" lon="7.5959">
        <ele>190.48</ele>
        <time>2016-01-06T08:33:58Z</time>
      </trkpt>
      <trkpt lat="48.02018" lon="7.59594">
        <ele>190.48</ele>
        <time>2016-01-06T08:34:00Z</time>
      </trkpt>
      <trkpt lat="48.0201" lon="7.59633">
        <ele>190</ele>
        <time>2016-01-06T08:34:17Z</time>
      </trkpt>
      <trkpt lat="48.02005" lon="7.59661">
        <ele>188.56</ele>
        <time>2016-01-06T08:34:41Z</time>
      </trkpt>
      <trkpt lat="48.01982" lon="7.59674">
        <ele>186.63</ele>
        <time>2016-01-06T08:35:05Z</time>
      </trkpt>
      <trkpt lat="48.01966" lon="7.59684">
        <ele>186.63</ele>
        <time>2016-01-06T08:35:31Z</time>
      </trkpt>
      <trkpt lat="48.01949" lon="7.59713">
        <ele>187.11</ele>
        <time>2016-01-06T08:35:52Z</time>
      </trkpt>
      <trkpt lat="48.01931" lon="7.59732">
        <ele>186.63</ele>
        <time>2016-01-06T08:36:17Z</time>
      </trkpt>
      <trkpt lat="48.01923" lon="7.59741">
        <ele>186.15</ele>
        <time>2016-01-06T08:36:54Z</time>
      </trkpt>
      <trkpt lat="48.0191" lon="7.59765">
        <ele>186.63</ele>
        <time>2016-01-06T08:37:16Z</time>
      </trkpt>
      <trkpt lat="48.01896" lon="7.5979">
        <ele>186.63</ele>
        <time>2016-01-06T08:37:34Z</time>
      </trkpt>
      <trkpt lat="48.01885" lon="7.59808">
        <ele>186.15</ele>
        <time>2016-01-06T08:37:56Z</time>
      </trkpt>
      <trkpt lat="48.01874" lon="7.5983">
        <ele>186.63</ele>
        <time>2016-01-06T08:38:18Z</time>
      </trkpt>
      <trkpt lat="48.01856" lon="7.59867">
        <ele>186.63</ele>
        <time>2016-01-06T08:38:38Z</time>
      </trkpt>
      <trkpt lat="48.0184" lon="7.59883">
        <ele>187.11</ele>
        <time>2016-01-06T08:38:56Z</time>
      </trkpt>
      <trkpt lat="48.01824" lon="7.59906">
        <ele>186.63</ele>
        <time>2016-01-06T08:39:16Z</time>
      </trkpt>
      <trkpt lat="48.01809" lon="7.59935">
        <ele>186.63</ele>
        <time>2016-01-06T08:39:40Z</time>
      </trkpt>
      <trkpt lat="48.01799" lon="7.59973">
        <ele>186.63</ele>
        <time>2016-01-06T08:40:05Z</time>
      </trkpt>
      <trkpt lat="48.01788" lon="7.60029">
        <ele>186.15</ele>
        <time>2016-01-06T08:40:33Z</time>
      </trkpt>
      <trkpt lat="48.01782" lon="7.60058">
        <ele>186.15</ele>
        <time>2016-01-06T08:40:56Z</time>
      </trkpt>
      <trkpt lat="48.01771" lon="7.60087">
        <ele>185.67</ele>
        <time>2016-01-06T08:41:19Z</time>
      </trkpt>
      <trkpt lat="48.01765" lon="7.60122">
        <ele>185.19</ele>
        <time>2016-01-06T08:41:35Z</time>
      </trkpt>
      <trkpt lat="48.01752" lon="7.60155">
        <ele>185.67</ele>
        <time>2016-01-06T08:41:59Z</time>
      </trkpt>
      <trkpt lat="48.01744" lon="7.60178">
        <ele>184.71</ele>
        <time>2016-01-06T08:42:17Z</time>
      </trkpt>
      <trkpt lat="48.01735" lon="7.60212">
        <ele>185.19</ele>
        <time>2016-01-06T08:42:40Z</time>
      </trkpt>
      <trkpt lat="48.01718" lon="7.60241">
        <ele>185.19</ele>
        <time>2016-01-06T08:43:07Z</time>
      </trkpt>
      <trkpt lat="48.01691" lon="7.60283">
        <ele>185.67</ele>
        <time>2016-01-06T08:43:33Z</time>
      </trkpt>
      <trkpt lat="48.01673" lon="7.60302">
        <ele>185.67</ele>
        <time>2016-01-06T08:43:56Z</time>
      </trkpt>
      <trkpt lat="48.01651" lon="7.6032">
        <ele>185.19</ele>
        <time>2016-01-06T08:44:21Z</time>
      </trkpt>
      <trkpt lat="48.01633" lon="7.60331">
        <ele>184.23</ele>
        <time>2016-01-06T08:44:41Z</time>
      </trkpt>
      <trkpt lat="48.0161" lon="7.60349">
        <ele>185.19</ele>
        <time>2016-01-06T08:45:02Z</time>
      </trkpt>
      <trkpt lat="48.01592" lon="7.60353">
        <ele>185.67</ele>
        <time>2016-01-06T08:45:23Z</time>
      </trkpt>
      <trkpt lat="48.01571" lon="7.60366">
        <ele>185.19</ele>
        <time>2016-01-06T08:45:46Z</time>
      </trkpt>
      <trkpt lat="48.01543" lon="7.60385">
        <ele>184.71</ele>
        <time>2016-01-06T08:46:06Z</time>
      </trkpt>
      <trkpt lat="48.01511" lon="7.60408">
        <ele>185.19</ele>
        <time>2016-01-06T08:46:29Z</time>
      </trkpt>
      <trkpt lat="48.01488" lon="7.60419">
        <ele>185.19</ele>
        <time>2016-01-06T08:46:52Z</time>
      </trkpt>
      <trkpt lat="48.01468" lon="7.60429">
        <ele>185.19</ele>
        <time>2016-01-06T08:47:14Z</time>
      </trkpt>
      <trkpt lat="48.01437" lon="7.60446">
        <ele>185.19</ele>
        <time>2016-01-06T08:47:40Z</time>
      </trkpt>
      <trkpt lat="48.01415" lon="7.60453">
        <ele>185.67</ele>
        <time>2016-01-06T08:47:58Z</time>
      </trkpt>
      <trkpt lat="48.01392" lon="7.60435">
        <ele>185.19</ele>
        <time>2016-01-06T08:48:22Z</time>
      </trkpt>
      <trkpt lat="48.01377" lon="7.60434">
        <ele>185.67</ele>
        <time>2016-01-06T08:48:39Z</time>
      </trkpt>
      <trkpt lat="48.0136" lon="7.60445">
        <ele>185.67</ele>
        <time>2016-01-06T08:49:04Z</time>
      </trkpt>
      <trkpt lat="48.01358" lon="7.60445">
        <ele>185.67</ele>
        <time>2016-01-06T08:49:51Z</time>
      </trkpt>
      <trkpt lat="48.01356" lon="7.60443">
        <ele>185.67</ele>
        <time>2016-01-06T08:50:14Z</time>
      </trkpt>
      <trkpt lat="48.01356" lon="7.60443">
        <ele>177.98</ele>
        <time>2016-01-06T08:50:19Z</time>
      </trkpt>
      <trkpt lat="48.01356" lon="7.60443">
        <ele>187.11</ele>
        <time>2016-01-06T08:50:20Z</time>
      </trkpt>
      <trkpt lat="48.01355" lon="7.60442">
        <ele>185.67</ele>
        <time>2016-01-06T08:50:59Z</time>
      </trkpt>
      <trkpt lat="48.01356" lon="7.60438">
        <ele>185.67</ele>
        <time>2016-01-06T08:51:33Z</time>
      </trkpt>
      <trkpt lat="48.01356" lon="7.60438">
        <ele>186.15</ele>
        <time>2016-01-06T08:52:04Z</time>
      </trkpt>
      <trkpt lat="48.01357" lon="7.60438">
        <ele>186.15</ele>
        <time>2016-01-06T08:52:46Z</time>
      </trkpt>
      <trkpt lat="48.01355" lon="7.60425">
        <ele>186.15</ele>
        <time>2016-01-06T08:53:24Z</time>
      </trkpt>
      <trkpt lat="48.01346" lon="7.60383">
        <ele>185.67</ele>
        <time>2016-01-06T08:53:48Z</time>
      </trkpt>
      <trkpt lat="48.01336" lon="7.60335">
        <ele>185.67</ele>
        <time>2016-01-06T08:54:10Z</time>
      </trkpt>
      <trkpt lat="48.01333" lon="7.60301">
        <ele>185.67</ele>
        <time>2016-01-06T08:54:31Z</time>
      </trkpt>
      <trkpt lat="48.01326" lon="7.60266">
        <ele>185.67</ele>
        <time>2016-01-06T08:54:53Z</time>
      </trkpt>
      <trkpt lat="48.01321" lon="7.6023">
        <ele>185.67</ele>
        <time>2016-01-06T08:55:16Z</time>
      </trkpt>
      <trkpt lat="48.01312" lon="7.60193">
        <ele>186.15</ele>
        <time>2016-01-06T08:55:38Z</time>
      </trkpt>
      <trkpt lat="48.01308" lon="7.6018">
        <ele>185.67</ele>
        <time>2016-01-06T08:56:05Z</time>
      </trkpt>
      <trkpt lat="48.01301" lon="7.6017">
        <ele>186.15</ele>
        <time>2016-01-06T08:56:49Z</time>
      </trkpt>
      <trkpt lat="48.01291" lon="7.60186">
        <ele>186.15</ele>
        <time>2016-01-06T08:57:21Z</time>
      </trkpt>
      <trkpt lat="48.01271" lon="7.60215">
        <ele>185.67</ele>
        <time>2016-01-06T08:57:43Z</time>
      </trkpt>
      <trkpt lat="48.01263" lon="7.60229">
        <ele>185.67</ele>
        <time>2016-01-06T08:58:03Z</time>
      </trkpt>
      <trkpt lat="48.0125" lon="7.60251">
        <ele>186.15</ele>
        <time>2016-01-06T08:58:24Z</time>
      </trkpt>
      <trkpt lat="48.01244" lon="7.60259">
        <ele>187.11</ele>
        <time>2016-01-06T08:58:42Z</time>
      </trkpt>
      <trkpt lat="48.01226" lon="7.60289">
        <ele>186.15</ele>
        <time>2016-01-06T08:59:05Z</time>
      </trkpt>
      <trkpt lat="48.01203" lon="7.60324">
        <ele>186.63</ele>
        <time>2016-01-06T08:59:26Z</time>
      </trkpt>
      <trkpt lat="48.01185" lon="7.60357">
        <ele>186.15</ele>
        <time>2016-01-06T08:59:52Z</time>
      </trkpt>
      <trkpt lat="48.01165" lon="7.60386">
        <ele>186.63</ele>
        <time>2016-01-06T09:00:18Z</time>
      </trkpt>
      <trkpt lat="48.01145" lon="7.60423">
        <ele>186.15</ele>
        <time>2016-01-06T09:00:42Z</time>
      </trkpt>
      <trkpt lat="48.01126" lon="7.60455">
        <ele>186.15</ele>
        <time>2016-01-06T09:01:08Z</time>
      </trkpt>
      <trkpt lat="48.01111" lon="7.6048">
        <ele>186.63</ele>
        <time>2016-01-06T09:01:30Z</time>
      </trkpt>
      <trkpt lat="48.01091" lon="7.60518">
        <ele>186.63</ele>
        <time>2016-01-06T09:01:52Z</time>
      </trkpt>
      <trkpt lat="48.01071" lon="7.6054">
        <ele>187.11</ele>
        <time>2016-01-06T09:02:16Z</time>
      </trkpt>
      <trkpt lat="48.01048" lon="7.60581">
        <ele>186.63</ele>
        <time>2016-01-06T09:02:40Z</time>
      </trkpt>
      <trkpt lat="48.01044" lon="7.60592">
        <ele>187.11</ele>
        <time>2016-01-06T09:02:59Z</time>
      </trkpt>
      <trkpt lat="48.01027" lon="7.60619">
        <ele>187.11</ele>
        <time>2016-01-06T09:03:20Z</time>
      </trkpt>
      <trkpt lat="48.01011" lon="7.60644">
        <ele>186.63</ele>
        <time>2016-01-06T09:03:41Z</time>
      </trkpt>
      <trkpt lat="48.00995" lon="7.6066">
        <ele>186.15</ele>
        <time>2016-01-06T09:04:02Z</time>
      </trkpt>
      <trkpt lat="48.00977" lon="7.60691">
        <ele>186.63</ele>
        <time>2016-01-06T09:04:25Z</time>
      </trkpt>
      <trkpt lat="48.00959" lon="7.60722">
        <ele>186.63</ele>
        <time>2016-01-06T09:04:47Z</time>
      </trkpt>
      <trkpt lat="48.00951" lon="7.60736">
        <ele>186.63</ele>
        <time>2016-01-06T09:05:10Z</time>
      </trkpt>
      <trkpt lat="48.00924" lon="7.60779">
        <ele>187.11</ele>
        <time>2016-01-06T09:05:32Z</time>
      </trkpt>
      <trkpt lat="48.00914" lon="7.60792">
        <ele>187.59</ele>
        <time>2016-01-06T09:05:54Z</time>
      </trkpt>
      <trkpt lat="48.00902" lon="7.60776">
        <ele>186.63</ele>
        <time>2016-01-06T09:06:28Z</time>
      </trkpt>
      <trkpt lat="48.00883" lon="7.60745">
        <ele>186.63</ele>
        <time>2016-01-06T09:06:51Z</time>
      </trkpt>
      <trkpt lat="48.00882" lon="7.60743">
        <ele>186.63</ele>
        <time>2016-01-06T09:06:52Z</time>
      </trkpt>
      <trkpt lat="48.00865" lon="7.60718">
        <ele>187.59</ele>
        <time>2016-01-06T09:07:13Z</time>
      </trkpt>
      <trkpt lat="48.00862" lon="7.60677">
        <ele>187.59</ele>
        <time>2016-01-06T09:07:34Z</time>
      </trkpt>
      <trkpt lat="48.00876" lon="7.60654">
        <ele>187.11</ele>
        <time>2016-01-06T09:07:50Z</time>
      </trkpt>
      <trkpt lat="48.00866" lon="7.60641">
        <ele>186.63</ele>
        <time>2016-01-06T09:08:11Z</time>
      </trkpt>
      <trkpt lat="48.00855" lon="7.60627">
        <ele>186.63</ele>
        <time>2016-01-06T09:08:30Z</time>
      </trkpt>
      <trkpt lat="48.00847" lon="7.60615">
        <ele>187.11</ele>
        <time>2016-01-06T09:08:55Z</time>
      </trkpt>
      <trkpt lat="48.00838" lon="7.6059">
        <ele>186.63</ele>
        <time>2016-01-06T09:09:24Z</time>
      </trkpt>
      <trkpt lat="48.00824" lon="7.6055">
        <ele>186.63</ele>
        <time>2016-01-06T09:09:48Z</time>
      </trkpt>
      <trkpt lat="48.00807" lon="7.60521">
        <ele>187.11</ele>
        <time>2016-01-06T09:10:09Z</time>
      </trkpt>
      <trkpt lat="48.0079" lon="7.60511">
        <ele>186.63</ele>
        <time>2016-01-06T09:10:26Z</time>
      </trkpt>
      <trkpt lat="48.00781" lon="7.60509">
        <ele>187.11</ele>
        <time>2016-01-06T09:10:33Z</time>
      </trkpt>
      <trkpt lat="48.0077" lon="7.60511">
        <ele>187.11</ele>
        <time>2016-01-06T09:10:42Z</time>
      </trkpt>
      <trkpt lat="48.00748" lon="7.60528">
        <ele>187.59</ele>
        <time>2016-01-06T09:11:03Z</time>
      </trkpt>
      <trkpt lat="48.00735" lon="7.60542">
        <ele>187.11</ele>
        <time>2016-01-06T09:11:20Z</time>
      </trkpt>
      <trkpt lat="48.00722" lon="7.60571">
        <ele>186.63</ele>
        <time>2016-01-06T09:11:39Z</time>
      </trkpt>
      <trkpt lat="48.00714" lon="7.60592">
        <ele>187.11</ele>
        <time>2016-01-06T09:11:57Z</time>
      </trkpt>
      <trkpt lat="48.00706" lon="7.6061">
        <ele>187.11</ele>
        <time>2016-01-06T09:12:18Z</time>
      </trkpt>
      <trkpt lat="48.00692" lon="7.60652">
        <ele>187.59</ele>
        <time>2016-01-06T09:12:41Z</time>
      </trkpt>
      <trkpt lat="48.00684" lon="7.60675">
        <ele>187.59</ele>
        <time>2016-01-06T09:13:01Z</time>
      </trkpt>
      <trkpt lat="48.00668" lon="7.60726">
        <ele>187.11</ele>
        <time>2016-01-06T09:13:21Z</time>
      </trkpt>
      <trkpt lat="48.00654" lon="7.60755">
        <ele>187.59</ele>
        <time>2016-01-06T09:13:42Z</time>
      </trkpt>
      <trkpt lat="48.0064" lon="7.60795">
        <ele>187.59</ele>
        <time>2016-01-06T09:14:07Z</time>
      </trkpt>
      <trkpt lat="48.00629" lon="7.60833">
        <ele>187.11</ele>
        <time>2016-01-06T09:14:29Z</time>
      </trkpt>
      <trkpt lat="48.00629" lon="7.60864">
        <ele>187.11</ele>
        <time>2016-01-06T09:14:50Z</time>
      </trkpt>
      <trkpt lat="48.00625" lon="7.60891">
        <ele>187.11</ele>
        <time>2016-01-06T09:15:07Z</time>
      </trkpt>
      <trkpt lat="48.00605" lon="7.60914">
        <ele>187.11</ele>
        <time>2016-01-06T09:15:27Z</time>
      </trkpt>
      <trkpt lat="48.00587" lon="7.60946">
        <ele>186.63</ele>
        <time>2016-01-06T09:15:45Z</time>
      </trkpt>
      <trkpt lat="48.00583" lon="7.60956">
        <ele>187.59</ele>
        <time>2016-01-06T09:16:05Z</time>
      </trkpt>
      <trkpt lat="48.00577" lon="7.60966">
        <ele>187.59</ele>
        <time>2016-01-06T09:16:28Z</time>
      </trkpt>
      <trkpt lat="48.00571" lon="7.60987">
        <ele>187.11</ele>
        <time>2016-01-06T09:16:48Z</time>
      </trkpt>
      <trkpt lat="48.0057" lon="7.60993">
        <ele>187.59</ele>
        <time>2016-01-06T09:17:20Z</time>
      </trkpt>
      <trkpt lat="48.00549" lon="7.61021">
        <ele>186.63</ele>
        <time>2016-01-06T09:17:43Z</time>
      </trkpt>
      <trkpt lat="48.00529" lon="7.61028">
        <ele>186.63</ele>
        <time>2016-01-06T09:18:04Z</time>
      </trkpt>
      <trkpt lat="48.00509" lon="7.61041">
        <ele>187.11</ele>
        <time>2016-01-06T09:18:25Z</time>
      </trkpt>
      <trkpt lat="48.00487" lon="7.61055">
        <ele>187.59</ele>
        <time>2016-01-06T09:18:46Z</time>
      </trkpt>
      <trkpt lat="48.00486" lon="7.61055">
        <ele>187.11</ele>
        <time>2016-01-06T09:18:47Z</time>
      </trkpt>
      <trkpt lat="48.00462" lon="7.61069">
        <ele>187.59</ele>
        <time>2016-01-06T09:19:08Z</time>
      </trkpt>
      <trkpt lat="48.00441" lon="7.61079">
        <ele>187.59</ele>
        <time>2016-01-06T09:19:27Z</time>
      </trkpt>
      <trkpt lat="48.0042" lon="7.61091">
        <ele>187.59</ele>
        <time>2016-01-06T09:19:48Z</time>
      </trkpt>
      <trkpt lat="48.00401" lon="7.61101">
        <ele>187.59</ele>
        <time>2016-01-06T09:20:06Z</time>
      </trkpt>
      <trkpt lat="48.0038" lon="7.61115">
        <ele>188.08</ele>
        <time>2016-01-06T09:20:26Z</time>
      </trkpt>
      <trkpt lat="48.00355" lon="7.61131">
        <ele>188.56</ele>
        <time>2016-01-06T09:20:46Z</time>
      </trkpt>
      <trkpt lat="48.0033" lon="7.61147">
        <ele>188.56</ele>
        <time>2016-01-06T09:21:07Z</time>
      </trkpt>
      <trkpt lat="48.00324" lon="7.61149">
        <ele>187.59</ele>
        <time>2016-01-06T09:21:14Z</time>
      </trkpt>
      <trkpt lat="48.00314" lon="7.61152">
        <ele>189.04</ele>
        <time>2016-01-06T09:21:25Z</time>
      </trkpt>
      <trkpt lat="48.00286" lon="7.61171">
        <ele>189.04</ele>
        <time>2016-01-06T09:21:50Z</time>
      </trkpt>
      <trkpt lat="48.00266" lon="7.61194">
        <ele>189.04</ele>
        <time>2016-01-06T09:22:13Z</time>
      </trkpt>
      <trkpt lat="48.00264" lon="7.612">
        <ele>189.04</ele>
        <time>2016-01-06T09:22:17Z</time>
      </trkpt>
      <trkpt lat="48.00253" lon="7.61236">
        <ele>189.04</ele>
        <time>2016-01-06T09:22:39Z</time>
      </trkpt>
      <trkpt lat="48.00243" lon="7.6127">
        <ele>189.04</ele>
        <time>2016-01-06T09:23:00Z</time>
      </trkpt>
      <trkpt lat="48.00237" lon="7.61313">
        <ele>189.04</ele>
        <time>2016-01-06T09:23:25Z</time>
      </trkpt>
      <trkpt lat="48.00233" lon="7.61344">
        <ele>189.04</ele>
        <time>2016-01-06T09:23:48Z</time>
      </trkpt>
      <trkpt lat="48.00236" lon="7.61385">
        <ele>188.56</ele>
        <time>2016-01-06T09:24:09Z</time>
      </trkpt>
      <trkpt lat="48.00233" lon="7.61427">
        <ele>188.56</ele>
        <time>2016-01-06T09:24:31Z</time>
      </trkpt>
      <trkpt lat="48.00234" lon="7.61462">
        <ele>188.56</ele>
        <time>2016-01-06T09:24:51Z</time>
      </trkpt>
      <trkpt lat="48.00229" lon="7.615">
        <ele>189.52</ele>
        <time>2016-01-06T09:25:11Z</time>
      </trkpt>
      <trkpt lat="48.00227" lon="7.61548">
        <ele>188.56</ele>
        <time>2016-01-06T09:25:38Z</time>
      </trkpt>
      <trkpt lat="48.00213" lon="7.61594">
        <ele>188.56</ele>
        <time>2016-01-06T09:26:04Z</time>
      </trkpt>
      <trkpt lat="48.00206" lon="7.61603">
        <ele>188.08</ele>
        <time>2016-01-06T09:26:24Z</time>
      </trkpt>
      <trkpt lat="48.00206" lon="7.61603">
        <ele>188.08</ele>
        <time>2016-01-06T09:27:33Z</time>
      </trkpt>
      <trkpt lat="48.00204" lon="7.61608">
        <ele>188.56</ele>
        <time>2016-01-06T09:28:24Z</time>
      </trkpt>
      <trkpt lat="48.00204" lon="7.61608">
        <ele>188.08</ele>
        <time>2016-01-06T09:29:17Z</time>
      </trkpt>
      <trkpt lat="48.00201" lon="7.61606">
        <ele>188.08</ele>
        <time>2016-01-06T09:29:50Z</time>
      </trkpt>
      <trkpt lat="48.00205" lon="7.61604">
        <ele>188.08</ele>
        <time>2016-01-06T09:30:15Z</time>
      </trkpt>
      <trkpt lat="48.00209" lon="7.61603">
        <ele>187.59</ele>
        <time>2016-01-06T09:30:50Z</time>
      </trkpt>
      <trkpt lat="48.00209" lon="7.61603">
        <ele>187.59</ele>
        <time>2016-01-06T09:31:38Z</time>
      </trkpt>
      <trkpt lat="48.00209" lon="7.61603">
        <ele>187.59</ele>
        <time>2016-01-06T09:32:57Z</time>
      </trkpt>
      <trkpt lat="48.00211" lon="7.61603">
        <ele>188.08</ele>
        <time>2016-01-06T09:33:39Z</time>
      </trkpt>
      <trkpt lat="48.00211" lon="7.61603">
        <ele>188.08</ele>
        <time>2016-01-06T09:34:16Z</time>
      </trkpt>
      <trkpt lat="48.00212" lon="7.61602">
        <ele>184.23</ele>
        <time>2016-01-06T09:34:37Z</time>
      </trkpt>
      <trkpt lat="48.00212" lon="7.61602">
        <ele>195.77</ele>
        <time>2016-01-06T09:34:38Z</time>
      </trkpt>
      <trkpt lat="48.00212" lon="7.61602">
        <ele>189.04</ele>
        <time>2016-01-06T09:34:39Z</time>
      </trkpt>
      <trkpt lat="48.00212" lon="7.61602">
        <ele>187.59</ele>
        <time>2016-01-06T09:35:18Z</time>
      </trkpt>
      <trkpt lat="48.00212" lon="7.61602">
        <ele>187.59</ele>
        <time>2016-01-06T09:36:03Z</time>
      </trkpt>
      <trkpt lat="48.00211" lon="7.61602">
        <ele>187.59</ele>
        <time>2016-01-06T09:36:35Z</time>
      </trkpt>
      <trkpt lat="48.00211" lon="7.61603">
        <ele>188.56</ele>
        <time>2016-01-06T09:37:18Z</time>
      </trkpt>
      <trkpt lat="48.00212" lon="7.61605">
        <ele>187.59</ele>
        <time>2016-01-06T09:37:43Z</time>
      </trkpt>
      <trkpt lat="48.0021" lon="7.61607">
        <ele>187.59</ele>
        <time>2016-01-06T09:37:55Z</time>
      </trkpt>
      <trkpt lat="48.00194" lon="7.61602">
        <ele>187.59</ele>
        <time>2016-01-06T09:38:18Z</time>
      </trkpt>
      <trkpt lat="48.00197" lon="7.61603">
        <ele>188.56</ele>
        <time>2016-01-06T09:38:50Z</time>
      </trkpt>
      <trkpt lat="48.00206" lon="7.61606">
        <ele>187.59</ele>
        <time>2016-01-06T09:39:38Z</time>
      </trkpt>
      <trkpt lat="48.00207" lon="7.61606">
        <ele>187.59</ele>
        <time>2016-01-06T09:40:20Z</time>
      </trkpt>
      <trkpt lat="48.00195" lon="7.61597">
        <ele>188.08</ele>
        <time>2016-01-06T09:40:45Z</time>
      </trkpt>
      <trkpt lat="48.0018" lon="7.61571">
        <ele>188.56</ele>
        <time>2016-01-06T09:41:04Z</time>
      </trkpt>
      <trkpt lat="48.00164" lon="7.61547">
        <ele>188.08</ele>
        <time>2016-01-06T09:41:24Z</time>
      </trkpt>
      <trkpt lat="48.00144" lon="7.6152">
        <ele>189.04</ele>
        <time>2016-01-06T09:41:43Z</time>
      </trkpt>
      <trkpt lat="48.00137" lon="7.61513">
        <ele>189.04</ele>
        <time>2016-01-06T09:42:04Z</time>
      </trkpt>
      <trkpt lat="48.00131" lon="7.61511">
        <ele>189.52</ele>
        <time>2016-01-06T09:42:08Z</time>
      </trkpt>
      <trkpt lat="48.00113" lon="7.61503">
        <ele>189.04</ele>
        <time>2016-01-06T09:42:23Z</time>
      </trkpt>
      <trkpt lat="48.00098" lon="7.61491">
        <ele>189.04</ele>
        <time>2016-01-06T09:42:40Z</time>
      </trkpt>
      <trkpt lat="48.00072" lon="7.6147">
        <ele>189.04</ele>
        <time>2016-01-06T09:43:00Z</time>
      </trkpt>
      <trkpt lat="48.00053" lon="7.61441">
        <ele>189.04</ele>
        <time>2016-01-06T09:43:21Z</time>
      </trkpt>
      <trkpt lat="48.00036" lon="7.61413">
        <ele>189.52</ele>
        <time>2016-01-06T09:43:39Z</time>
      </trkpt>
      <trkpt lat="48.00019" lon="7.61373">
        <ele>189.04</ele>
        <time>2016-01-06T09:44:01Z</time>
      </trkpt>
      <trkpt lat="48.00005" lon="7.61335">
        <ele>189.04</ele>
        <time>2016-01-06T09:44:21Z</time>
      </trkpt>
      <trkpt lat="47.99991" lon="7.6129">
        <ele>189.04</ele>
        <time>2016-01-06T09:44:43Z</time>
      </trkpt>
      <trkpt lat="47.99978" lon="7.61257">
        <ele>188.56</ele>
        <time>2016-01-06T09:45:04Z</time>
      </trkpt>
      <trkpt lat="47.99971" lon="7.61228">
        <ele>188.08</ele>
        <time>2016-01-06T09:45:21Z</time>
      </trkpt>
      <trkpt lat="47.99953" lon="7.61191">
        <ele>189.04</ele>
        <time>2016-01-06T09:45:43Z</time>
      </trkpt>
      <trkpt lat="47.99937" lon="7.61162">
        <ele>189.04</ele>
        <time>2016-01-06T09:46:06Z</time>
      </trkpt>
      <trkpt lat="47.99924" lon="7.6116">
        <ele>189.04</ele>
        <time>2016-01-06T09:46:30Z</time>
      </trkpt>
      <trkpt lat="47.99922" lon="7.61145">
        <ele>189.52</ele>
        <time>2016-01-06T09:46:47Z</time>
      </trkpt>
      <trkpt lat="47.99923" lon="7.61148">
        <ele>190</ele>
        <time>2016-01-06T09:47:15Z</time>
      </trkpt>
      <trkpt lat="47.99931" lon="7.61146">
        <ele>189.52</ele>
        <time>2016-01-06T09:47:44Z</time>
      </trkpt>
      <trkpt lat="47.99952" lon="7.61125">
        <ele>188.56</ele>
        <time>2016-01-06T09:48:03Z</time>
      </trkpt>
      <trkpt lat="47.99972" lon="7.61101">
        <ele>189.04</ele>
        <time>2016-01-06T09:48:27Z</time>
      </trkpt>
      <trkpt lat="47.99992" lon="7.6108">
        <ele>189.04</ele>
        <time>2016-01-06T09:48:51Z</time>
      </trkpt>
      <trkpt lat="48.00014" lon="7.6106">
        <ele>188.56</ele>
        <time>2016-01-06T09:49:13Z</time>
      </trkpt>
      <trkpt lat="48.00034" lon="7.61042">
        <ele>188.56</ele>
        <time>2016-01-06T09:49:35Z</time>
      </trkpt>
      <trkpt lat="48.00056" lon="7.61023">
        <ele>189.52</ele>
        <time>2016-01-06T09:49:58Z</time>
      </trkpt>
      <trkpt lat="48.00072" lon="7.61005">
        <ele>188.56</ele>
        <time>2016-01-06T09:50:18Z</time>
      </trkpt>
      <trkpt lat="48.00094" lon="7.60985">
        <ele>188.56</ele>
        <time>2016-01-06T09:50:40Z</time>
      </trkpt>
      <trkpt lat="48.00116" lon="7.60963">
        <ele>189.04</ele>
        <time>2016-01-06T09:51:02Z</time>
      </trkpt>
      <trkpt lat="48.00127" lon="7.60955">
        <ele>189.04</ele>
        <time>2016-01-06T09:51:22Z</time>
      </trkpt>
      <trkpt lat="48.00129" lon="7.60954">
        <ele>188.56</ele>
        <time>2016-01-06T09:51:26Z</time>
      </trkpt>
      <trkpt lat="48.00134" lon="7.60949">
        <ele>189.04</ele>
        <time>2016-01-06T09:51:32Z</time>
      </trkpt>
      <trkpt lat="48.00159" lon="7.6093">
        <ele>189.04</ele>
        <time>2016-01-06T09:51:51Z</time>
      </trkpt>
      <trkpt lat="48.00164" lon="7.60921">
        <ele>189.52</ele>
        <time>2016-01-06T09:51:59Z</time>
      </trkpt>
      <trkpt lat="48.00172" lon="7.60909">
        <ele>189.04</ele>
        <time>2016-01-06T09:52:09Z</time>
      </trkpt>
      <trkpt lat="48.00191" lon="7.60889">
        <ele>189.52</ele>
        <time>2016-01-06T09:52:29Z</time>
      </trkpt>
      <trkpt lat="48.00213" lon="7.6087">
        <ele>189.52</ele>
        <time>2016-01-06T09:52:50Z</time>
      </trkpt>
      <trkpt lat="48.00234" lon="7.60846">
        <ele>189.52</ele>
        <time>2016-01-06T09:53:13Z</time>
      </trkpt>
      <trkpt lat="48.00246" lon="7.60838">
        <ele>189.52</ele>
        <time>2016-01-06T09:53:32Z</time>
      </trkpt>
      <trkpt lat="48.00264" lon="7.60817">
        <ele>189.04</ele>
        <time>2016-01-06T09:53:51Z</time>
      </trkpt>
      <trkpt lat="48.00284" lon="7.60799">
        <ele>189.04</ele>
        <time>2016-01-06T09:54:10Z</time>
      </trkpt>
      <trkpt lat="48.00305" lon="7.60774">
        <ele>189.52</ele>
        <time>2016-01-06T09:54:33Z</time>
      </trkpt>
      <trkpt lat="48.00326" lon="7.60753">
        <ele>189.04</ele>
        <time>2016-01-06T09:54:55Z</time>
      </trkpt>
      <trkpt lat="48.0035" lon="7.6073">
        <ele>189.52</ele>
        <time>2016-01-06T09:55:18Z</time>
      </trkpt>
      <trkpt lat="48.00363" lon="7.60715">
        <ele>188.56</ele>
        <time>2016-01-06T09:55:32Z</time>
      </trkpt>
      <trkpt lat="48.00385" lon="7.60695">
        <ele>189.52</ele>
        <time>2016-01-06T09:55:53Z</time>
      </trkpt>
      <trkpt lat="48.00407" lon="7.60668">
        <ele>189.04</ele>
        <time>2016-01-06T09:56:17Z</time>
      </trkpt>
      <trkpt lat="48.00429" lon="7.60649">
        <ele>190</ele>
        <time>2016-01-06T09:56:38Z</time>
      </trkpt>
      <trkpt lat="48.00445" lon="7.60626">
        <ele>190</ele>
        <time>2016-01-06T09:56:59Z</time>
      </trkpt>
      <trkpt lat="48.00465" lon="7.60608">
        <ele>189.52</ele>
        <time>2016-01-06T09:57:20Z</time>
      </trkpt>
      <trkpt lat="48.00484" lon="7.60585">
        <ele>190</ele>
        <time>2016-01-06T09:57:43Z</time>
      </trkpt>
      <trkpt lat="48.00506" lon="7.60558">
        <ele>189.52</ele>
        <time>2016-01-06T09:58:07Z</time>
      </trkpt>
      <trkpt lat="48.00507" lon="7.60557">
        <ele>189.52</ele>
        <time>2016-01-06T09:58:08Z</time>
      </trkpt>
      <trkpt lat="48.00526" lon="7.60538">
        <ele>189.52</ele>
        <time>2016-01-06T09:58:29Z</time>
      </trkpt>
      <trkpt lat="48.00543" lon="7.60518">
        <ele>189.52</ele>
        <time>2016-01-06T09:58:49Z</time>
      </trkpt>
      <trkpt lat="48.0056" lon="7.60498">
        <ele>190</ele>
        <time>2016-01-06T09:59:09Z</time>
      </trkpt>
      <trkpt lat="48.00584" lon="7.60472">
        <ele>190.48</ele>
        <time>2016-01-06T09:59:35Z</time>
      </trkpt>
      <trkpt lat="48.00602" lon="7.60447">
        <ele>190.48</ele>
        <time>2016-01-06T09:59:56Z</time>
      </trkpt>
      <trkpt lat="48.00625" lon="7.60419">
        <ele>190</ele>
        <time>2016-01-06T10:00:21Z</time>
      </trkpt>
      <trkpt lat="48.00642" lon="7.604">
        <ele>190</ele>
        <time>2016-01-06T10:00:39Z</time>
      </trkpt>
      <trkpt lat="48.0066" lon="7.60376">
        <ele>190.48</ele>
        <time>2016-01-06T10:01:00Z</time>
      </trkpt>
      <trkpt lat="48.0068" lon="7.60355">
        <ele>190</ele>
        <time>2016-01-06T10:01:22Z</time>
      </trkpt>
      <trkpt lat="48.00698" lon="7.6033">
        <ele>190</ele>
        <time>2016-01-06T10:01:44Z</time>
      </trkpt>
      <trkpt lat="48.00716" lon="7.60307">
        <ele>190.96</ele>
        <time>2016-01-06T10:02:04Z</time>
      </trkpt>
      <trkpt lat="48.00718" lon="7.60303">
        <ele>190</ele>
        <time>2016-01-06T10:02:07Z</time>
      </trkpt>
      <trkpt lat="48.00734" lon="7.60285">
        <ele>190.48</ele>
        <time>2016-01-06T10:02:25Z</time>
      </trkpt>
      <trkpt lat="48.00748" lon="7.60269">
        <ele>190.48</ele>
        <time>2016-01-06T10:02:41Z</time>
      </trkpt>
      <trkpt lat="48.00768" lon="7.60246">
        <ele>190</ele>
        <time>2016-01-06T10:03:03Z</time>
      </trkpt>
      <trkpt lat="48.00786" lon="7.60224">
        <ele>190.48</ele>
        <time>2016-01-06T10:03:24Z</time>
      </trkpt>
      <trkpt lat="48.00803" lon="7.60199">
        <ele>189.52</ele>
        <time>2016-01-06T10:03:44Z</time>
      </trkpt>
      <trkpt lat="48.00821" lon="7.60175">
        <ele>190</ele>
        <time>2016-01-06T10:04:04Z</time>
      </trkpt>
      <trkpt lat="48.00834" lon="7.60164">
        <ele>190.48</ele>
        <time>2016-01-06T10:04:20Z</time>
      </trkpt>
      <trkpt lat="48.0084" lon="7.60155">
        <ele>190.96</ele>
        <time>2016-01-06T10:04:28Z</time>
      </trkpt>
      <trkpt lat="48.00865" lon="7.60121">
        <ele>190.48</ele>
        <time>2016-01-06T10:04:56Z</time>
      </trkpt>
      <trkpt lat="48.00881" lon="7.60101">
        <ele>190</ele>
        <time>2016-01-06T10:05:15Z</time>
      </trkpt>
      <trkpt lat="48.00903" lon="7.60072">
        <ele>190</ele>
        <time>2016-01-06T10:05:39Z</time>
      </trkpt>
      <trkpt lat="48.00922" lon="7.60047">
        <ele>190.96</ele>
        <time>2016-01-06T10:06:02Z</time>
      </trkpt>
      <trkpt lat="48.00943" lon="7.60026">
        <ele>190.96</ele>
        <time>2016-01-06T10:06:29Z</time>
      </trkpt>
      <trkpt lat="48.00967" lon="7.59992">
        <ele>190.96</ele>
        <time>2016-01-06T10:06:57Z</time>
      </trkpt>
      <trkpt lat="48.00979" lon="7.59981">
        <ele>190.96</ele>
        <time>2016-01-06T10:07:19Z</time>
      </trkpt>
      <trkpt lat="48.00989" lon="7.59965">
        <ele>190.48</ele>
        <time>2016-01-06T10:07:29Z</time>
      </trkpt>
      <trkpt lat="48.01011" lon="7.59944">
        <ele>190.48</ele>
        <time>2016-01-06T10:07:51Z</time>
      </trkpt>
      <trkpt lat="48.01027" lon="7.5992">
        <ele>190.96</ele>
        <time>2016-01-06T10:08:09Z</time>
      </trkpt>
      <trkpt lat="48.01046" lon="7.59898">
        <ele>190.96</ele>
        <time>2016-01-06T10:08:29Z</time>
      </trkpt>
      <trkpt lat="48.01053" lon="7.59888">
        <ele>190</ele>
        <time>2016-01-06T10:08:37Z</time>
      </trkpt>
      <trkpt lat="48.01065" lon="7.59875">
        <ele>190.48</ele>
        <time>2016-01-06T10:08:51Z</time>
      </trkpt>
      <trkpt lat="48.0108" lon="7.5985">
        <ele>190.96</ele>
        <time>2016-01-06T10:09:10Z</time>
      </trkpt>
      <trkpt lat="48.011" lon="7.59826">
        <ele>190.96</ele>
        <time>2016-01-06T10:09:32Z</time>
      </trkpt>
      <trkpt lat="48.01117" lon="7.59806">
        <ele>191.44</ele>
        <time>2016-01-06T10:09:53Z</time>
      </trkpt>
      <trkpt lat="48.01138" lon="7.59777">
        <ele>191.44</ele>
        <time>2016-01-06T10:10:16Z</time>
      </trkpt>
      <trkpt lat="48.01155" lon="7.59759">
        <ele>191.44</ele>
        <time>2016-01-06T10:10:36Z</time>
      </trkpt>
      <trkpt lat="48.01159" lon="7.59755">
        <ele>191.44</ele>
        <time>2016-01-06T10:10:40Z</time>
      </trkpt>
      <trkpt lat="48.01168" lon="7.59742">
        <ele>192.4</ele>
        <time>2016-01-06T10:11:03Z</time>
      </trkpt>
      <trkpt lat="48.01173" lon="7.59737">
        <ele>191.92</ele>
        <time>2016-01-06T10:11:26Z</time>
      </trkpt>
      <trkpt lat="48.01184" lon="7.59731">
        <ele>191.44</ele>
        <time>2016-01-06T10:11:51Z</time>
      </trkpt>
      <trkpt lat="48.012" lon="7.59762">
        <ele>190.96</ele>
        <time>2016-01-06T10:12:15Z</time>
      </trkpt>
      <trkpt lat="48.01226" lon="7.59799">
        <ele>190.96</ele>
        <time>2016-01-06T10:12:40Z</time>
      </trkpt>
      <trkpt lat="48.01238" lon="7.59813">
        <ele>191.44</ele>
        <time>2016-01-06T10:13:04Z</time>
      </trkpt>
      <trkpt lat="48.01239" lon="7.59809">
        <ele>190.48</ele>
        <time>2016-01-06T10:13:32Z</time>
      </trkpt>
      <trkpt lat="48.01257" lon="7.59787">
        <ele>190.96</ele>
        <time>2016-01-06T10:13:55Z</time>
      </trkpt>
      <trkpt lat="48.01261" lon="7.59781">
        <ele>190.96</ele>
        <time>2016-01-06T10:13:59Z</time>
      </trkpt>
      <trkpt lat="48.01284" lon="7.59736">
        <ele>190.96</ele>
        <time>2016-01-06T10:14:22Z</time>
      </trkpt>
      <trkpt lat="48.01296" lon="7.59718">
        <ele>190.48</ele>
        <time>2016-01-06T10:14:44Z</time>
      </trkpt>
      <trkpt lat="48.01302" lon="7.5971">
        <ele>189.52</ele>
        <time>2016-01-06T10:15:05Z</time>
      </trkpt>
      <trkpt lat="48.01321" lon="7.59683">
        <ele>190.48</ele>
        <time>2016-01-06T10:15:26Z</time>
      </trkpt>
      <trkpt lat="48.01341" lon="7.59654">
        <ele>190.96</ele>
        <time>2016-01-06T10:15:51Z</time>
      </trkpt>
      <trkpt lat="48.01365" lon="7.59625">
        <ele>190.48</ele>
        <time>2016-01-06T10:16:16Z</time>
      </trkpt>
      <trkpt lat="48.01386" lon="7.59601">
        <ele>190</ele>
        <time>2016-01-06T10:16:37Z</time>
      </trkpt>
      <trkpt lat="48.01391" lon="7.59595">
        <ele>190.48</ele>
        <time>2016-01-06T10:17:06Z</time>
      </trkpt>
      <trkpt lat="48.01409" lon="7.5957">
        <ele>190.48</ele>
        <time>2016-01-06T10:17:27Z</time>
      </trkpt>
      <trkpt lat="48.0143" lon="7.59537">
        <ele>190.48</ele>
        <time>2016-01-06T10:17:48Z</time>
      </trkpt>
      <trkpt lat="48.01455" lon="7.59514">
        <ele>190.48</ele>
        <time>2016-01-06T10:18:10Z</time>
      </trkpt>
      <trkpt lat="48.01478" lon="7.59489">
        <ele>190.48</ele>
        <time>2016-01-06T10:18:34Z</time>
      </trkpt>
      <trkpt lat="48.01499" lon="7.59452">
        <ele>190.48</ele>
        <time>2016-01-06T10:19:01Z</time>
      </trkpt>
      <trkpt lat="48.01522" lon="7.59424">
        <ele>190.48</ele>
        <time>2016-01-06T10:19:25Z</time>
      </trkpt>
      <trkpt lat="48.01541" lon="7.59401">
        <ele>190.48</ele>
        <time>2016-01-06T10:19:49Z</time>
      </trkpt>
      <trkpt lat="48.01565" lon="7.59379">
        <ele>190.48</ele>
        <time>2016-01-06T10:20:10Z</time>
      </trkpt>
      <trkpt lat="48.01588" lon="7.59355">
        <ele>190.48</ele>
        <time>2016-01-06T10:20:36Z</time>
      </trkpt>
      <trkpt lat="48.01603" lon="7.5933">
        <ele>190.48</ele>
        <time>2016-01-06T10:21:00Z</time>
      </trkpt>
      <trkpt lat="48.01629" lon="7.59296">
        <ele>190</ele>
        <time>2016-01-06T10:21:26Z</time>
      </trkpt>
      <trkpt lat="48.01652" lon="7.59266">
        <ele>190.48</ele>
        <time>2016-01-06T10:21:52Z</time>
      </trkpt>
      <trkpt lat="48.01674" lon="7.59237">
        <ele>190.48</ele>
        <time>2016-01-06T10:22:20Z</time>
      </trkpt>
      <trkpt lat="48.01697" lon="7.59208">
        <ele>189.52</ele>
        <time>2016-01-06T10:22:44Z</time>
      </trkpt>
      <trkpt lat="48.01722" lon="7.59183">
        <ele>189.52</ele>
        <time>2016-01-06T10:23:11Z</time>
      </trkpt>
      <trkpt lat="48.01744" lon="7.59161">
        <ele>189.52</ele>
        <time>2016-01-06T10:23:34Z</time>
      </trkpt>
      <trkpt lat="48.01767" lon="7.59133">
        <ele>189.52</ele>
        <time>2016-01-06T10:23:57Z</time>
      </trkpt>
      <trkpt lat="48.01781" lon="7.59113">
        <ele>190</ele>
        <time>2016-01-06T10:24:19Z</time>
      </trkpt>
      <trkpt lat="48.01798" lon="7.59088">
        <ele>189.52</ele>
        <time>2016-01-06T10:24:41Z</time>
      </trkpt>
      <trkpt lat="48.01825" lon="7.59047">
        <ele>190</ele>
        <time>2016-01-06T10:25:08Z</time>
      </trkpt>
      <trkpt lat="48.01842" lon="7.59025">
        <ele>189.52</ele>
        <time>2016-01-06T10:25:31Z</time>
      </trkpt>
      <trkpt lat="48.01859" lon="7.59006">
        <ele>189.52</ele>
        <time>2016-01-06T10:25:50Z</time>
      </trkpt>
      <trkpt lat="48.01877" lon="7.58993">
        <ele>190</ele>
        <time>2016-01-06T10:26:13Z</time>
      </trkpt>
      <trkpt lat="48.01883" lon="7.5898">
        <ele>190.96</ele>
        <time>2016-01-06T10:26:24Z</time>
      </trkpt>
      <trkpt lat="48.01892" lon="7.58947">
        <ele>192.4</ele>
        <time>2016-01-06T10:26:44Z</time>
      </trkpt>
      <trkpt lat="48.01899" lon="7.58936">
        <ele>193.84</ele>
        <time>2016-01-06T10:27:04Z</time>
      </trkpt>
      <trkpt lat="48.01899" lon="7.58936">
        <ele>236.14</ele>
        <time>2016-01-06T10:28:12Z</time>
      </trkpt>
      <trkpt lat="48.01899" lon="7.58936">
        <ele>190.96</ele>
        <time>2016-01-06T10:28:13Z</time>
      </trkpt>
      <trkpt lat="48.01899" lon="7.58936">
        <ele>190.96</ele>
        <time>2016-01-06T10:28:14Z</time>
      </trkpt>
      <trkpt lat="48.01906" lon="7.58941">
        <ele>190.48</ele>
        <time>2016-01-06T10:28:17Z</time>
      </trkpt>
      <trkpt lat="48.01902" lon="7.58936">
        <ele>192.4</ele>
        <time>2016-01-06T10:28:29Z</time>
      </trkpt>
      <trkpt lat="48.01904" lon="7.58931">
        <ele>193.36</ele>
        <time>2016-01-06T10:28:34Z</time>
      </trkpt>
      <trkpt lat="48.01915" lon="7.58906">
        <ele>196.25</ele>
        <time>2016-01-06T10:28:56Z</time>
      </trkpt>
      <trkpt lat="48.01929" lon="7.58888">
        <ele>195.77</ele>
        <time>2016-01-06T10:29:15Z</time>
      </trkpt>
      <trkpt lat="48.01941" lon="7.58873">
        <ele>194.8</ele>
        <time>2016-01-06T10:29:32Z</time>
      </trkpt>
      <trkpt lat="48.01966" lon="7.58864">
        <ele>193.84</ele>
        <time>2016-01-06T10:29:53Z</time>
      </trkpt>
      <trkpt lat="48.01985" lon="7.5885">
        <ele>193.84</ele>
        <time>2016-01-06T10:30:14Z</time>
      </trkpt>
      <trkpt lat="48.02001" lon="7.5884">
        <ele>193.84</ele>
        <time>2016-01-06T10:30:36Z</time>
      </trkpt>
      <trkpt lat="48.02005" lon="7.58824">
        <ele>193.84</ele>
        <time>2016-01-06T10:30:41Z</time>
      </trkpt>
      <trkpt lat="48.02024" lon="7.58801">
        <ele>192.88</ele>
        <time>2016-01-06T10:31:01Z</time>
      </trkpt>
      <trkpt lat="48.02043" lon="7.58774">
        <ele>192.88</ele>
        <time>2016-01-06T10:31:22Z</time>
      </trkpt>
      <trkpt lat="48.02061" lon="7.58751">
        <ele>193.36</ele>
        <time>2016-01-06T10:31:40Z</time>
      </trkpt>
      <trkpt lat="48.0208" lon="7.58732">
        <ele>193.84</ele>
        <time>2016-01-06T10:31:58Z</time>
      </trkpt>
      <trkpt lat="48.02096" lon="7.58714">
        <ele>194.32</ele>
        <time>2016-01-06T10:32:15Z</time>
      </trkpt>
      <trkpt lat="48.02098" lon="7.58711">
        <ele>194.8</ele>
        <time>2016-01-06T10:32:19Z</time>
      </trkpt>
      <trkpt lat="48.02112" lon="7.58697">
        <ele>194.32</ele>
        <time>2016-01-06T10:32:35Z</time>
      </trkpt>
      <trkpt lat="48.02124" lon="7.58682">
        <ele>193.84</ele>
        <time>2016-01-06T10:32:49Z</time>
      </trkpt>
      <trkpt lat="48.02132" lon="7.5867">
        <ele>194.8</ele>
        <time>2016-01-06T10:33:10Z</time>
      </trkpt>
      <trkpt lat="48.02142" lon="7.58656">
        <ele>193.36</ele>
        <time>2016-01-06T10:33:29Z</time>
      </trkpt>
      <trkpt lat="48.0216" lon="7.58635">
        <ele>193.36</ele>
        <time>2016-01-06T10:33:51Z</time>
      </trkpt>
      <trkpt lat="48.02177" lon="7.58609">
        <ele>192.88</ele>
        <time>2016-01-06T10:34:11Z</time>
      </trkpt>
      <trkpt lat="48.02179" lon="7.58604">
        <ele>194.32</ele>
        <time>2016-01-06T10:34:14Z</time>
      </trkpt>
      <trkpt lat="48.02197" lon="7.58573">
        <ele>193.84</ele>
        <time>2016-01-06T10:34:41Z</time>
      </trkpt>
      <trkpt lat="48.02217" lon="7.58558">
        <ele>192.88</ele>
        <time>2016-01-06T10:35:01Z</time>
      </trkpt>
      <trkpt lat="48.02229" lon="7.58543">
        <ele>193.36</ele>
        <time>2016-01-06T10:35:19Z</time>
      </trkpt>
      <trkpt lat="48.02236" lon="7.58536">
        <ele>194.32</ele>
        <time>2016-01-06T10:35:47Z</time>
      </trkpt>
      <trkpt lat="48.02236" lon="7.58536">
        <ele>193.36</ele>
        <time>2016-01-06T10:36:27Z</time>
      </trkpt>
      <trkpt lat="48.02235" lon="7.58536">
        <ele>193.84</ele>
        <time>2016-01-06T10:37:50Z</time>
      </trkpt>
      <trkpt lat="48.02248" lon="7.58524">
        <ele>193.36</ele>
        <time>2016-01-06T10:38:17Z</time>
      </trkpt>
      <trkpt lat="48.02263" lon="7.58505">
        <ele>193.84</ele>
        <time>2016-01-06T10:38:36Z</time>
      </trkpt>
      <trkpt lat="48.02272" lon="7.58497">
        <ele>192.88</ele>
        <time>2016-01-06T10:38:46Z</time>
      </trkpt>
      <trkpt lat="48.02287" lon="7.58473">
        <ele>193.36</ele>
        <time>2016-01-06T10:39:05Z</time>
      </trkpt>
      <trkpt lat="48.02288" lon="7.58464">
        <ele>193.36</ele>
        <time>2016-01-06T10:39:11Z</time>
      </trkpt>
      <trkpt lat="48.02291" lon="7.58432">
        <ele>192.88</ele>
        <time>2016-01-06T10:39:28Z</time>
      </trkpt>
      <trkpt lat="48.02295" lon="7.58395">
        <ele>192.88</ele>
        <time>2016-01-06T10:39:47Z</time>
      </trkpt>
      <trkpt lat="48.02301" lon="7.58368">
        <ele>192.4</ele>
        <time>2016-01-06T10:40:05Z</time>
      </trkpt>
      <trkpt lat="48.02309" lon="7.5834">
        <ele>192.4</ele>
        <time>2016-01-06T10:40:23Z</time>
      </trkpt>
      <trkpt lat="48.02318" lon="7.58322">
        <ele>192.4</ele>
        <time>2016-01-06T10:40:39Z</time>
      </trkpt>
      <trkpt lat="48.02333" lon="7.58304">
        <ele>191.92</ele>
        <time>2016-01-06T10:41:01Z</time>
      </trkpt>
      <trkpt lat="48.02345" lon="7.58286">
        <ele>191.92</ele>
        <time>2016-01-06T10:41:18Z</time>
      </trkpt>
      <trkpt lat="48.02349" lon="7.58268">
        <ele>191.92</ele>
        <time>2016-01-06T10:41:37Z</time>
      </trkpt>
      <trkpt lat="48.02362" lon="7.58247">
        <ele>191.44</ele>
        <time>2016-01-06T10:41:58Z</time>
      </trkpt>
      <trkpt lat="48.02385" lon="7.58216">
        <ele>190.48</ele>
        <time>2016-01-06T10:42:22Z</time>
      </trkpt>
      <trkpt lat="48.02398" lon="7.582">
        <ele>191.44</ele>
        <time>2016-01-06T10:42:40Z</time>
      </trkpt>
      <trkpt lat="48.0242" lon="7.58171">
        <ele>190.96</ele>
        <time>2016-01-06T10:43:01Z</time>
      </trkpt>
      <trkpt lat="48.02441" lon="7.58143">
        <ele>190.96</ele>
        <time>2016-01-06T10:43:22Z</time>
      </trkpt>
      <trkpt lat="48.0246" lon="7.58123">
        <ele>190.96</ele>
        <time>2016-01-06T10:43:41Z</time>
      </trkpt>
      <trkpt lat="48.02479" lon="7.58095">
        <ele>191.44</ele>
        <time>2016-01-06T10:43:58Z</time>
      </trkpt>
      <trkpt lat="48.02496" lon="7.58076">
        <ele>190.96</ele>
        <time>2016-01-06T10:44:15Z</time>
      </trkpt>
      <trkpt lat="48.02511" lon="7.58059">
        <ele>190.48</ele>
        <time>2016-01-06T10:44:36Z</time>
      </trkpt>
      <trkpt lat="48.02529" lon="7.58032">
        <ele>190.96</ele>
        <time>2016-01-06T10:44:56Z</time>
      </trkpt>
      <trkpt lat="48.02538" lon="7.58018">
        <ele>190.96</ele>
        <time>2016-01-06T10:45:13Z</time>
      </trkpt>
      <trkpt lat="48.02544" lon="7.58013">
        <ele>191.44</ele>
        <time>2016-01-06T10:45:29Z</time>
      </trkpt>
      <trkpt lat="48.02547" lon="7.58012">
        <ele>191.44</ele>
        <time>2016-01-06T10:45:45Z</time>
      </trkpt>
      <trkpt lat="48.02548" lon="7.5801">
        <ele>191.44</ele>
        <time>2016-01-06T10:46:24Z</time>
      </trkpt>
      <trkpt lat="48.02568" lon="7.57995">
        <ele>190.96</ele>
        <time>2016-01-06T10:46:45Z</time>
      </trkpt>
      <trkpt lat="48.02592" lon="7.57964">
        <ele>190</ele>
        <time>2016-01-06T10:47:11Z</time>
      </trkpt>
      <trkpt lat="48.02608" lon="7.57944">
        <ele>190.48</ele>
        <time>2016-01-06T10:47:32Z</time>
      </trkpt>
      <trkpt lat="48.02628" lon="7.57919">
        <ele>190</ele>
        <time>2016-01-06T10:47:56Z</time>
      </trkpt>
      <trkpt lat="48.0265" lon="7.57899">
        <ele>190.48</ele>
        <time>2016-01-06T10:48:20Z</time>
      </trkpt>
      <trkpt lat="48.02658" lon="7.57874">
        <ele>190.48</ele>
        <time>2016-01-06T10:48:43Z</time>
      </trkpt>
      <trkpt lat="48.0266" lon="7.5787">
        <ele>190.48</ele>
        <time>2016-01-06T10:48:46Z</time>
      </trkpt>
      <trkpt lat="48.02685" lon="7.57852">
        <ele>190.96</ele>
        <time>2016-01-06T10:49:12Z</time>
      </trkpt>
      <trkpt lat="48.02709" lon="7.57866">
        <ele>190.96</ele>
        <time>2016-01-06T10:49:36Z</time>
      </trkpt>
      <trkpt lat="48.0271" lon="7.57867">
        <ele>191.44</ele>
        <time>2016-01-06T10:49:38Z</time>
      </trkpt>
      <trkpt lat="48.02719" lon="7.57887">
        <ele>190.96</ele>
        <time>2016-01-06T10:49:57Z</time>
      </trkpt>
      <trkpt lat="48.0273" lon="7.57905">
        <ele>190.96</ele>
        <time>2016-01-06T10:50:13Z</time>
      </trkpt>
      <trkpt lat="48.02744" lon="7.57935">
        <ele>192.4</ele>
        <time>2016-01-06T10:50:36Z</time>
      </trkpt>
      <trkpt lat="48.02757" lon="7.57957">
        <ele>192.4</ele>
        <time>2016-01-06T10:51:01Z</time>
      </trkpt>
      <trkpt lat="48.02769" lon="7.57959">
        <ele>193.36</ele>
        <time>2016-01-06T10:51:21Z</time>
      </trkpt>
      <trkpt lat="48.02781" lon="7.5796">
        <ele>190.96</ele>
        <time>2016-01-06T10:51:53Z</time>
      </trkpt>
      <trkpt lat="48.02803" lon="7.57959">
        <ele>191.44</ele>
        <time>2016-01-06T10:52:13Z</time>
      </trkpt>
      <trkpt lat="48.02807" lon="7.57958">
        <ele>190.96</ele>
        <time>2016-01-06T10:52:38Z</time>
      </trkpt>
      <trkpt lat="48.02815" lon="7.57952">
        <ele>190</ele>
        <time>2016-01-06T10:53:11Z</time>
      </trkpt>
      <trkpt lat="48.02826" lon="7.57952">
        <ele>190.96</ele>
        <time>2016-01-06T10:53:37Z</time>
      </trkpt>
      <trkpt lat="48.02839" lon="7.57943">
        <ele>190.48</ele>
        <time>2016-01-06T10:54:36Z</time>
      </trkpt>
      <trkpt lat="48.02843" lon="7.57923">
        <ele>190.96</ele>
        <time>2016-01-06T10:54:56Z</time>
      </trkpt>
      <trkpt lat="48.02845" lon="7.57911">
        <ele>190.96</ele>
        <time>2016-01-06T10:55:14Z</time>
      </trkpt>
      <trkpt lat="48.02849" lon="7.57891">
        <ele>190.96</ele>
        <time>2016-01-06T10:55:38Z</time>
      </trkpt>
      <trkpt lat="48.02852" lon="7.57876">
        <ele>191.44</ele>
        <time>2016-01-06T10:55:58Z</time>
      </trkpt>
      <trkpt lat="48.02858" lon="7.57858">
        <ele>190.96</ele>
        <time>2016-01-06T10:56:19Z</time>
      </trkpt>
      <trkpt lat="48.02868" lon="7.5783">
        <ele>191.92</ele>
        <time>2016-01-06T10:56:45Z</time>
      </trkpt>
      <trkpt lat="48.02873" lon="7.57804">
        <ele>190.96</ele>
        <time>2016-01-06T10:57:08Z</time>
      </trkpt>
      <trkpt lat="48.02879" lon="7.57776">
        <ele>190.48</ele>
        <time>2016-01-06T10:57:29Z</time>
      </trkpt>
      <trkpt lat="48.02871" lon="7.57752">
        <ele>191.44</ele>
        <time>2016-01-06T10:57:51Z</time>
      </trkpt>
      <trkpt lat="48.02875" lon="7.57737">
        <ele>191.92</ele>
        <time>2016-01-06T10:58:11Z</time>
      </trkpt>
      <trkpt lat="48.0289" lon="7.57715">
        <ele>191.92</ele>
        <time>2016-01-06T10:58:33Z</time>
      </trkpt>
      <trkpt lat="48.02904" lon="7.57689">
        <ele>190.96</ele>
        <time>2016-01-06T10:58:58Z</time>
      </trkpt>
      <trkpt lat="48.0292" lon="7.5766">
        <ele>191.44</ele>
        <time>2016-01-06T10:59:21Z</time>
      </trkpt>
      <trkpt lat="48.02934" lon="7.57639">
        <ele>191.44</ele>
        <time>2016-01-06T10:59:42Z</time>
      </trkpt>
      <trkpt lat="48.02945" lon="7.57616">
        <ele>191.92</ele>
        <time>2016-01-06T11:00:02Z</time>
      </trkpt>
      <trkpt lat="48.02948" lon="7.57592">
        <ele>191.92</ele>
        <time>2016-01-06T11:00:21Z</time>
      </trkpt>
      <trkpt lat="48.02942" lon="7.57586">
        <ele>191.44</ele>
        <time>2016-01-06T11:00:41Z</time>
      </trkpt>
      <trkpt lat="48.02926" lon="7.57567">
        <ele>190.96</ele>
        <time>2016-01-06T11:01:04Z</time>
      </trkpt>
      <trkpt lat="48.02918" lon="7.57547">
        <ele>190.96</ele>
        <time>2016-01-06T11:01:28Z</time>
      </trkpt>
      <trkpt lat="48.02922" lon="7.57526">
        <ele>190.96</ele>
        <time>2016-01-06T11:01:48Z</time>
      </trkpt>
      <trkpt lat="48.02935" lon="7.57508">
        <ele>191.44</ele>
        <time>2016-01-06T11:02:04Z</time>
      </trkpt>
      <trkpt lat="48.02951" lon="7.57491">
        <ele>190.96</ele>
        <time>2016-01-06T11:02:26Z</time>
      </trkpt>
      <trkpt lat="48.02969" lon="7.57469">
        <ele>190.96</ele>
        <time>2016-01-06T11:02:48Z</time>
      </trkpt>
      <trkpt lat="48.02987" lon="7.57446">
        <ele>190.48</ele>
        <time>2016-01-06T11:03:10Z</time>
      </trkpt>
      <trkpt lat="48.03004" lon="7.57427">
        <ele>189.04</ele>
        <time>2016-01-06T11:03:32Z</time>
      </trkpt>
      <trkpt lat="48.03023" lon="7.57402">
        <ele>189.52</ele>
        <time>2016-01-06T11:03:54Z</time>
      </trkpt>
      <trkpt lat="48.03037" lon="7.57376">
        <ele>189.52</ele>
        <time>2016-01-06T11:04:13Z</time>
      </trkpt>
      <trkpt lat="48.03052" lon="7.5735">
        <ele>188.08</ele>
        <time>2016-01-06T11:04:35Z</time>
      </trkpt>
      <trkpt lat="48.03067" lon="7.57334">
        <ele>188.08</ele>
        <time>2016-01-06T11:04:53Z</time>
      </trkpt>
      <trkpt lat="48.03083" lon="7.57318">
        <ele>187.59</ele>
        <time>2016-01-06T11:05:11Z</time>
      </trkpt>
      <trkpt lat="48.031" lon="7.57296">
        <ele>187.59</ele>
        <time>2016-01-06T11:05:32Z</time>
      </trkpt>
      <trkpt lat="48.03122" lon="7.57276">
        <ele>188.08</ele>
        <time>2016-01-06T11:05:57Z</time>
      </trkpt>
      <trkpt lat="48.03123" lon="7.57277">
        <ele>188.56</ele>
        <time>2016-01-06T11:05:59Z</time>
      </trkpt>
      <trkpt lat="48.03141" lon="7.57265">
        <ele>189.04</ele>
        <time>2016-01-06T11:06:19Z</time>
      </trkpt>
      <trkpt lat="48.03159" lon="7.57266">
        <ele>187.59</ele>
        <time>2016-01-06T11:06:38Z</time>
      </trkpt>
      <trkpt lat="48.03168" lon="7.57268">
        <ele>188.08</ele>
        <time>2016-01-06T11:06:47Z</time>
      </trkpt>
      <trkpt lat="48.03187" lon="7.57268">
        <ele>187.59</ele>
        <time>2016-01-06T11:07:09Z</time>
      </trkpt>
      <trkpt lat="48.03202" lon="7.57267">
        <ele>187.59</ele>
        <time>2016-01-06T11:07:31Z</time>
      </trkpt>
      <trkpt lat="48.03202" lon="7.57264">
        <ele>186.63</ele>
        <time>2016-01-06T11:07:36Z</time>
      </trkpt>
      <trkpt lat="48.03201" lon="7.57273">
        <ele>188.08</ele>
        <time>2016-01-06T11:07:56Z</time>
      </trkpt>
      <trkpt lat="48.03201" lon="7.57274">
        <ele>188.08</ele>
        <time>2016-01-06T11:08:22Z</time>
      </trkpt>
      <trkpt lat="48.03202" lon="7.57273">
        <ele>187.59</ele>
        <time>2016-01-06T11:08:52Z</time>
      </trkpt>
      <trkpt lat="48.03203" lon="7.57274">
        <ele>187.59</ele>
        <time>2016-01-06T11:09:17Z</time>
      </trkpt>
      <trkpt lat="48.03202" lon="7.57275">
        <ele>187.59</ele>
        <time>2016-01-06T11:09:34Z</time>
      </trkpt>
      <trkpt lat="48.03202" lon="7.57275">
        <ele>187.59</ele>
        <time>2016-01-06T11:10:10Z</time>
      </trkpt>
      <trkpt lat="48.03203" lon="7.57281">
        <ele>188.08</ele>
        <time>2016-01-06T11:11:31Z</time>
      </trkpt>
      <trkpt lat="48.03207" lon="7.5728">
        <ele>188.08</ele>
        <time>2016-01-06T11:11:35Z</time>
      </trkpt>
      <trkpt lat="48.03215" lon="7.57264">
        <ele>187.59</ele>
        <time>2016-01-06T11:11:53Z</time>
      </trkpt>
      <trkpt lat="48.03226" lon="7.5724">
        <ele>189.04</ele>
        <time>2016-01-06T11:12:13Z</time>
      </trkpt>
      <trkpt lat="48.03237" lon="7.57218">
        <ele>188.08</ele>
        <time>2016-01-06T11:12:31Z</time>
      </trkpt>
      <trkpt lat="48.03253" lon="7.57185">
        <ele>188.08</ele>
        <time>2016-01-06T11:12:57Z</time>
      </trkpt>
      <trkpt lat="48.03262" lon="7.57161">
        <ele>188.56</ele>
        <time>2016-01-06T11:13:16Z</time>
      </trkpt>
      <trkpt lat="48.03271" lon="7.57143">
        <ele>188.56</ele>
        <time>2016-01-06T11:13:36Z</time>
      </trkpt>
      <trkpt lat="48.03284" lon="7.57127">
        <ele>188.08</ele>
        <time>2016-01-06T11:13:54Z</time>
      </trkpt>
      <trkpt lat="48.03302" lon="7.57122">
        <ele>188.08</ele>
        <time>2016-01-06T11:14:14Z</time>
      </trkpt>
      <trkpt lat="48.03329" lon="7.57117">
        <ele>188.08</ele>
        <time>2016-01-06T11:14:34Z</time>
      </trkpt>
      <trkpt lat="48.03346" lon="7.57104">
        <ele>188.56</ele>
        <time>2016-01-06T11:14:57Z</time>
      </trkpt>
      <trkpt lat="48.03371" lon="7.57095">
        <ele>189.04</ele>
        <time>2016-01-06T11:15:21Z</time>
      </trkpt>
      <trkpt lat="48.03395" lon="7.57077">
        <ele>188.08</ele>
        <time>2016-01-06T11:15:45Z</time>
      </trkpt>
      <trkpt lat="48.03413" lon="7.57069">
        <ele>189.04</ele>
        <time>2016-01-06T11:16:06Z</time>
      </trkpt>
      <trkpt lat="48.03431" lon="7.57062">
        <ele>189.04</ele>
        <time>2016-01-06T11:16:26Z</time>
      </trkpt>
      <trkpt lat="48.03448" lon="7.57055">
        <ele>188.08</ele>
        <time>2016-01-06T11:16:44Z</time>
      </trkpt>
      <trkpt lat="48.03467" lon="7.57034">
        <ele>189.04</ele>
        <time>2016-01-06T11:17:03Z</time>
      </trkpt>
      <trkpt lat="48.03481" lon="7.57033">
        <ele>188.56</ele>
        <time>2016-01-06T11:17:21Z</time>
      </trkpt>
      <trkpt lat="48.035" lon="7.57029">
        <ele>188.56</ele>
        <time>2016-01-06T11:17:42Z</time>
      </trkpt>
      <trkpt lat="48.03532" lon="7.57036">
        <ele>189.04</ele>
        <time>2016-01-06T11:18:05Z</time>
      </trkpt>
      <trkpt lat="48.03549" lon="7.57031">
        <ele>189.52</ele>
        <time>2016-01-06T11:18:25Z</time>
      </trkpt>
      <trkpt lat="48.03571" lon="7.57033">
        <ele>189.52</ele>
        <time>2016-01-06T11:18:48Z</time>
      </trkpt>
      <trkpt lat="48.03588" lon="7.5703">
        <ele>189.52</ele>
        <time>2016-01-06T11:19:04Z</time>
      </trkpt>
      <trkpt lat="48.03615" lon="7.57028">
        <ele>189.52</ele>
        <time>2016-01-06T11:19:31Z</time>
      </trkpt>
      <trkpt lat="48.03644" lon="7.57023">
        <ele>189.52</ele>
        <time>2016-01-06T11:19:58Z</time>
      </trkpt>
      <trkpt lat="48.03677" lon="7.5703">
        <ele>189.04</ele>
        <time>2016-01-06T11:20:25Z</time>
      </trkpt>
      <trkpt lat="48.03695" lon="7.57026">
        <ele>189.04</ele>
        <time>2016-01-06T11:20:43Z</time>
      </trkpt>
      <trkpt lat="48.03716" lon="7.57029">
        <ele>189.04</ele>
        <time>2016-01-06T11:21:00Z</time>
      </trkpt>
      <trkpt lat="48.03736" lon="7.57035">
        <ele>188.56</ele>
        <time>2016-01-06T11:21:19Z</time>
      </trkpt>
      <trkpt lat="48.03756" lon="7.57043">
        <ele>188.08</ele>
        <time>2016-01-06T11:21:38Z</time>
      </trkpt>
      <trkpt lat="48.03757" lon="7.57044">
        <ele>188.56</ele>
        <time>2016-01-06T11:21:39Z</time>
      </trkpt>
      <trkpt lat="48.03764" lon="7.57047">
        <ele>188.08</ele>
        <time>2016-01-06T11:21:46Z</time>
      </trkpt>
      <trkpt lat="48.03775" lon="7.57052">
        <ele>188.56</ele>
        <time>2016-01-06T11:22:06Z</time>
      </trkpt>
      <trkpt lat="48.03787" lon="7.5705">
        <ele>189.52</ele>
        <time>2016-01-06T11:22:24Z</time>
      </trkpt>
      <trkpt lat="48.03796" lon="7.57054">
        <ele>190.48</ele>
        <time>2016-01-06T11:22:46Z</time>
      </trkpt>
      <trkpt lat="48.03811" lon="7.57058">
        <ele>193.36</ele>
        <time>2016-01-06T11:23:09Z</time>
      </trkpt>
      <trkpt lat="48.03823" lon="7.57063">
        <ele>194.32</ele>
        <time>2016-01-06T11:23:30Z</time>
      </trkpt>
      <trkpt lat="48.03827" lon="7.57062">
        <ele>194.8</ele>
        <time>2016-01-06T11:24:03Z</time>
      </trkpt>
      <trkpt lat="48.03836" lon="7.57065">
        <ele>193.84</ele>
        <time>2016-01-06T11:24:10Z</time>
      </trkpt>
      <trkpt lat="48.03843" lon="7.57071">
        <ele>192.88</ele>
        <time>2016-01-06T11:24:17Z</time>
      </trkpt>
      <trkpt lat="48.03869" lon="7.57101">
        <ele>189.04</ele>
        <time>2016-01-06T11:24:43Z</time>
      </trkpt>
      <trkpt lat="48.03878" lon="7.57137">
        <ele>188.56</ele>
        <time>2016-01-06T11:25:04Z</time>
      </trkpt>
      <trkpt lat="48.03891" lon="7.57137">
        <ele>188.56</ele>
        <time>2016-01-06T11:25:15Z</time>
      </trkpt>
      <trkpt lat="48.03911" lon="7.57118">
        <ele>190.48</ele>
        <time>2016-01-06T11:25:35Z</time>
      </trkpt>
      <trkpt lat="48.03923" lon="7.57111">
        <ele>192.4</ele>
        <time>2016-01-06T11:25:48Z</time>
      </trkpt>
      <trkpt lat="48.03948" lon="7.57117">
        <ele>194.32</ele>
        <time>2016-01-06T11:26:08Z</time>
      </trkpt>
      <trkpt lat="48.03968" lon="7.57128">
        <ele>195.28</ele>
        <time>2016-01-06T11:26:29Z</time>
      </trkpt>
      <trkpt lat="48.03982" lon="7.57131">
        <ele>195.28</ele>
        <time>2016-01-06T11:26:50Z</time>
      </trkpt>
      <trkpt lat="48.04003" lon="7.57145">
        <ele>195.28</ele>
        <time>2016-01-06T11:27:10Z</time>
      </trkpt>
      <trkpt lat="48.04029" lon="7.57157">
        <ele>192.88</ele>
        <time>2016-01-06T11:27:29Z</time>
      </trkpt>
      <trkpt lat="48.04035" lon="7.57167">
        <ele>192.4</ele>
        <time>2016-01-06T11:27:36Z</time>
      </trkpt>
      <trkpt lat="48.04043" lon="7.57201">
        <ele>188.56</ele>
        <time>2016-01-06T11:28:00Z</time>
      </trkpt>
      <trkpt lat="48.04043" lon="7.57201">
        <ele>189.04</ele>
        <time>2016-01-06T11:28:04Z</time>
      </trkpt>
      <trkpt lat="48.04069" lon="7.572">
        <ele>189.04</ele>
        <time>2016-01-06T11:28:24Z</time>
      </trkpt>
      <trkpt lat="48.04097" lon="7.57192">
        <ele>188.56</ele>
        <time>2016-01-06T11:28:45Z</time>
      </trkpt>
      <trkpt lat="48.04116" lon="7.57194">
        <ele>189.04</ele>
        <time>2016-01-06T11:29:04Z</time>
      </trkpt>
      <trkpt lat="48.0413" lon="7.57191">
        <ele>189.52</ele>
        <time>2016-01-06T11:29:23Z</time>
      </trkpt>
      <trkpt lat="48.04136" lon="7.57194">
        <ele>188.56</ele>
        <time>2016-01-06T11:29:40Z</time>
      </trkpt>
      <trkpt lat="48.04156" lon="7.57209">
        <ele>188.08</ele>
        <time>2016-01-06T11:29:59Z</time>
      </trkpt>
      <trkpt lat="48.04164" lon="7.57214">
        <ele>187.59</ele>
        <time>2016-01-06T11:30:18Z</time>
      </trkpt>
      <trkpt lat="48.0418" lon="7.57229">
        <ele>187.59</ele>
        <time>2016-01-06T11:30:34Z</time>
      </trkpt>
      <trkpt lat="48.0419" lon="7.57243">
        <ele>187.59</ele>
        <time>2016-01-06T11:30:41Z</time>
      </trkpt>
      <trkpt lat="48.04196" lon="7.5724">
        <ele>187.59</ele>
        <time>2016-01-06T11:30:45Z</time>
      </trkpt>
      <trkpt lat="48.04238" lon="7.57243">
        <ele>187.59</ele>
        <time>2016-01-06T11:31:08Z</time>
      </trkpt>
      <trkpt lat="48.04271" lon="7.57249">
        <ele>187.11</ele>
        <time>2016-01-06T11:31:27Z</time>
      </trkpt>
      <trkpt lat="48.04275" lon="7.57254">
        <ele>187.11</ele>
        <time>2016-01-06T11:31:32Z</time>
      </trkpt>
      <trkpt lat="48.04282" lon="7.57268">
        <ele>187.59</ele>
        <time>2016-01-06T11:31:43Z</time>
      </trkpt>
      <trkpt lat="48.04305" lon="7.5728">
        <ele>188.08</ele>
        <time>2016-01-06T11:32:00Z</time>
      </trkpt>
      <trkpt lat="48.04305" lon="7.57281">
        <ele>187.59</ele>
        <time>2016-01-06T11:32:01Z</time>
      </trkpt>
      <trkpt lat="48.04316" lon="7.57288">
        <ele>187.59</ele>
        <time>2016-01-06T11:32:18Z</time>
      </trkpt>
      <trkpt lat="48.04326" lon="7.57297">
        <ele>187.11</ele>
        <time>2016-01-06T11:32:39Z</time>
      </trkpt>
      <trkpt lat="48.04319" lon="7.57307">
        <ele>187.59</ele>
        <time>2016-01-06T11:33:00Z</time>
      </trkpt>
      <trkpt lat="48.04315" lon="7.57314">
        <ele>187.59</ele>
        <time>2016-01-06T11:33:19Z</time>
      </trkpt>
      <trkpt lat="48.04313" lon="7.57312">
        <ele>187.59</ele>
        <time>2016-01-06T11:33:44Z</time>
      </trkpt>
      <trkpt lat="48.04314" lon="7.5731">
        <ele>187.11</ele>
        <time>2016-01-06T11:34:20Z</time>
      </trkpt>
      <trkpt lat="48.04319" lon="7.5732">
        <ele>186.63</ele>
        <time>2016-01-06T11:34:57Z</time>
      </trkpt>
      <trkpt lat="48.04319" lon="7.5732">
        <ele>186.63</ele>
        <time>2016-01-06T11:35:23Z</time>
      </trkpt>
      <trkpt lat="48.04319" lon="7.57319">
        <ele>186.15</ele>
        <time>2016-01-06T11:35:51Z</time>
      </trkpt>
      <trkpt lat="48.04319" lon="7.57337">
        <ele>186.63</ele>
        <time>2016-01-06T11:36:17Z</time>
      </trkpt>
      <trkpt lat="48.04314" lon="7.57341">
        <ele>186.15</ele>
        <time>2016-01-06T11:36:45Z</time>
      </trkpt>
      <trkpt lat="48.04304" lon="7.57347">
        <ele>186.15</ele>
        <time>2016-01-06T11:37:15Z</time>
      </trkpt>
      <trkpt lat="48.04304" lon="7.57347">
        <ele>182.79</ele>
        <time>2016-01-06T11:38:07Z</time>
      </trkpt>
      <trkpt lat="48.04304" lon="7.57347">
        <ele>188.56</ele>
        <time>2016-01-06T11:38:08Z</time>
      </trkpt>
      <trkpt lat="48.04304" lon="7.57347">
        <ele>185.67</ele>
        <time>2016-01-06T11:38:09Z</time>
      </trkpt>
      <trkpt lat="48.04304" lon="7.57347">
        <ele>185.67</ele>
        <time>2016-01-06T11:38:13Z</time>
      </trkpt>
      <trkpt lat="48.04304" lon="7.57347">
        <ele>230.85</ele>
        <time>2016-01-06T13:33:54Z</time>
      </trkpt>
      <trkpt lat="48.04304" lon="7.57347">
        <ele>202.49</ele>
        <time>2016-01-06T13:33:56Z</time>
      </trkpt>
      <trkpt lat="48.04313" lon="7.57339">
        <ele>202.98</ele>
        <time>2016-01-06T13:34:05Z</time>
      </trkpt>
      <trkpt lat="48.04321" lon="7.57337">
        <ele>197.21</ele>
        <time>2016-01-06T13:35:22Z</time>
      </trkpt>
      <trkpt lat="48.04324" lon="7.57333">
        <ele>201.53</ele>
        <time>2016-01-06T13:40:04Z</time>
      </trkpt>
      <trkpt lat="48.04324" lon="7.57332">
        <ele>201.05</ele>
        <time>2016-01-06T13:40:50Z</time>
      </trkpt>
      <trkpt lat="48.04324" lon="7.57332">
        <ele>201.05</ele>
        <time>2016-01-06T13:41:33Z</time>
      </trkpt>
      <trkpt lat="48.04324" lon="7.57332">
        <ele>200.57</ele>
        <time>2016-01-06T13:42:19Z</time>
      </trkpt>
      <trkpt lat="48.04324" lon="7.57332">
        <ele>200.09</ele>
        <time>2016-01-06T13:43:18Z</time>
      </trkpt>
      <trkpt lat="48.0433" lon="7.57341">
        <ele>200.09</ele>
        <time>2016-01-06T13:43:38Z</time>
      </trkpt>
      <trkpt lat="48.0433" lon="7.57341">
        <ele>200.09</ele>
        <time>2016-01-06T13:43:57Z</time>
      </trkpt>
      <trkpt lat="48.04331" lon="7.57342">
        <ele>200.09</ele>
        <time>2016-01-06T13:44:43Z</time>
      </trkpt>
      <trkpt lat="48.04328" lon="7.57341">
        <ele>199.61</ele>
        <time>2016-01-06T13:45:13Z</time>
      </trkpt>
      <trkpt lat="48.04334" lon="7.57339">
        <ele>199.13</ele>
        <time>2016-01-06T13:45:32Z</time>
      </trkpt>
      <trkpt lat="48.0434" lon="7.57318">
        <ele>199.13</ele>
        <time>2016-01-06T13:45:46Z</time>
      </trkpt>
      <trkpt lat="48.04344" lon="7.57301">
        <ele>199.13</ele>
        <time>2016-01-06T13:46:06Z</time>
      </trkpt>
      <trkpt lat="48.04339" lon="7.57289">
        <ele>198.65</ele>
        <time>2016-01-06T13:46:24Z</time>
      </trkpt>
      <trkpt lat="48.04334" lon="7.57287">
        <ele>198.65</ele>
        <time>2016-01-06T13:46:42Z</time>
      </trkpt>
      <trkpt lat="48.04332" lon="7.57282">
        <ele>198.65</ele>
        <time>2016-01-06T13:46:59Z</time>
      </trkpt>
      <trkpt lat="48.04332" lon="7.57282">
        <ele>198.17</ele>
        <time>2016-01-06T13:47:37Z</time>
      </trkpt>
      <trkpt lat="48.04334" lon="7.57278">
        <ele>198.17</ele>
        <time>2016-01-06T13:48:27Z</time>
      </trkpt>
      <trkpt lat="48.04334" lon="7.57278">
        <ele>198.17</ele>
        <time>2016-01-06T13:48:54Z</time>
      </trkpt>
      <trkpt lat="48.04336" lon="7.57298">
        <ele>197.69</ele>
        <time>2016-01-06T13:49:13Z</time>
      </trkpt>
      <trkpt lat="48.04336" lon="7.573">
        <ele>197.69</ele>
        <time>2016-01-06T13:49:15Z</time>
      </trkpt>
      <trkpt lat="48.04345" lon="7.57314">
        <ele>197.69</ele>
        <time>2016-01-06T13:49:38Z</time>
      </trkpt>
      <trkpt lat="48.04352" lon="7.57315">
        <ele>197.21</ele>
        <time>2016-01-06T13:49:47Z</time>
      </trkpt>
      <trkpt lat="48.04373" lon="7.57325">
        <ele>196.25</ele>
        <time>2016-01-06T13:50:08Z</time>
      </trkpt>
      <trkpt lat="48.04378" lon="7.57325">
        <ele>197.21</ele>
        <time>2016-01-06T13:50:21Z</time>
      </trkpt>
      <trkpt lat="48.04382" lon="7.57319">
        <ele>197.21</ele>
        <time>2016-01-06T13:50:25Z</time>
      </trkpt>
      <trkpt lat="48.04392" lon="7.57328">
        <ele>195.28</ele>
        <time>2016-01-06T13:50:34Z</time>
      </trkpt>
      <trkpt lat="48.04424" lon="7.57341">
        <ele>195.28</ele>
        <time>2016-01-06T13:50:57Z</time>
      </trkpt>
      <trkpt lat="48.04438" lon="7.57346">
        <ele>194.8</ele>
        <time>2016-01-06T13:51:09Z</time>
      </trkpt>
      <trkpt lat="48.0444" lon="7.57346">
        <ele>195.28</ele>
        <time>2016-01-06T13:51:11Z</time>
      </trkpt>
      <trkpt lat="48.04466" lon="7.57356">
        <ele>194.8</ele>
        <time>2016-01-06T13:51:33Z</time>
      </trkpt>
      <trkpt lat="48.04467" lon="7.57358">
        <ele>195.77</ele>
        <time>2016-01-06T13:51:55Z</time>
      </trkpt>
      <trkpt lat="48.04488" lon="7.57369">
        <ele>194.8</ele>
        <time>2016-01-06T13:52:14Z</time>
      </trkpt>
      <trkpt lat="48.04488" lon="7.57368">
        <ele>195.28</ele>
        <time>2016-01-06T13:52:17Z</time>
      </trkpt>
      <trkpt lat="48.04494" lon="7.57359">
        <ele>197.21</ele>
        <time>2016-01-06T13:52:25Z</time>
      </trkpt>
      <trkpt lat="48.04523" lon="7.57368">
        <ele>197.21</ele>
        <time>2016-01-06T13:52:48Z</time>
      </trkpt>
      <trkpt lat="48.0454" lon="7.57376">
        <ele>196.73</ele>
        <time>2016-01-06T13:53:06Z</time>
      </trkpt>
      <trkpt lat="48.04565" lon="7.57386">
        <ele>196.73</ele>
        <time>2016-01-06T13:53:26Z</time>
      </trkpt>
      <trkpt lat="48.04577" lon="7.57391">
        <ele>195.77</ele>
        <time>2016-01-06T13:53:35Z</time>
      </trkpt>
      <trkpt lat="48.04572" lon="7.57429">
        <ele>196.73</ele>
        <time>2016-01-06T13:53:55Z</time>
      </trkpt>
      <trkpt lat="48.04538" lon="7.57452">
        <ele>195.77</ele>
        <time>2016-01-06T13:54:21Z</time>
      </trkpt>
      <trkpt lat="48.04514" lon="7.57477">
        <ele>196.73</ele>
        <time>2016-01-06T13:54:42Z</time>
      </trkpt>
      <trkpt lat="48.04529" lon="7.57504">
        <ele>196.25</ele>
        <time>2016-01-06T13:55:05Z</time>
      </trkpt>
      <trkpt lat="48.04547" lon="7.57533">
        <ele>196.73</ele>
        <time>2016-01-06T13:55:28Z</time>
      </trkpt>
      <trkpt lat="48.04551" lon="7.57544">
        <ele>196.25</ele>
        <time>2016-01-06T13:55:35Z</time>
      </trkpt>
      <trkpt lat="48.0456" lon="7.57573">
        <ele>196.25</ele>
        <time>2016-01-06T13:55:55Z</time>
      </trkpt>
      <trkpt lat="48.0457" lon="7.57594">
        <ele>196.25</ele>
        <time>2016-01-06T13:56:13Z</time>
      </trkpt>
      <trkpt lat="48.04583" lon="7.57626">
        <ele>195.77</ele>
        <time>2016-01-06T13:56:36Z</time>
      </trkpt>
      <trkpt lat="48.0459" lon="7.57639">
        <ele>195.77</ele>
        <time>2016-01-06T13:56:48Z</time>
      </trkpt>
      <trkpt lat="48.04601" lon="7.5764">
        <ele>194.8</ele>
        <time>2016-01-06T13:56:58Z</time>
      </trkpt>
      <trkpt lat="48.04624" lon="7.57629">
        <ele>195.28</ele>
        <time>2016-01-06T13:57:19Z</time>
      </trkpt>
      <trkpt lat="48.04647" lon="7.57612">
        <ele>194.8</ele>
        <time>2016-01-06T13:57:42Z</time>
      </trkpt>
      <trkpt lat="48.04673" lon="7.57606">
        <ele>194.32</ele>
        <time>2016-01-06T13:58:04Z</time>
      </trkpt>
      <trkpt lat="48.047" lon="7.57586">
        <ele>194.32</ele>
        <time>2016-01-06T13:58:27Z</time>
      </trkpt>
      <trkpt lat="48.04717" lon="7.5758">
        <ele>194.8</ele>
        <time>2016-01-06T13:58:43Z</time>
      </trkpt>
      <trkpt lat="48.04734" lon="7.57569">
        <ele>194.32</ele>
        <time>2016-01-06T13:59:01Z</time>
      </trkpt>
      <trkpt lat="48.04744" lon="7.5754">
        <ele>193.84</ele>
        <time>2016-01-06T13:59:23Z</time>
      </trkpt>
      <trkpt lat="48.04743" lon="7.57529">
        <ele>193.84</ele>
        <time>2016-01-06T13:59:30Z</time>
      </trkpt>
      <trkpt lat="48.04756" lon="7.57502">
        <ele>193.84</ele>
        <time>2016-01-06T13:59:51Z</time>
      </trkpt>
      <trkpt lat="48.0478" lon="7.57482">
        <ele>193.84</ele>
        <time>2016-01-06T14:00:15Z</time>
      </trkpt>
      <trkpt lat="48.04806" lon="7.57463">
        <ele>193.84</ele>
        <time>2016-01-06T14:00:39Z</time>
      </trkpt>
      <trkpt lat="48.04817" lon="7.57461">
        <ele>193.36</ele>
        <time>2016-01-06T14:00:48Z</time>
      </trkpt>
      <trkpt lat="48.04839" lon="7.57469">
        <ele>192.88</ele>
        <time>2016-01-06T14:01:08Z</time>
      </trkpt>
      <trkpt lat="48.04841" lon="7.57472">
        <ele>192.88</ele>
        <time>2016-01-06T14:01:29Z</time>
      </trkpt>
      <trkpt lat="48.04842" lon="7.57472">
        <ele>193.36</ele>
        <time>2016-01-06T14:01:37Z</time>
      </trkpt>
      <trkpt lat="48.04846" lon="7.57474">
        <ele>193.36</ele>
        <time>2016-01-06T14:01:40Z</time>
      </trkpt>
      <trkpt lat="48.04873" lon="7.57493">
        <ele>192.88</ele>
        <time>2016-01-06T14:02:05Z</time>
      </trkpt>
      <trkpt lat="48.04883" lon="7.57495">
        <ele>193.36</ele>
        <time>2016-01-06T14:02:24Z</time>
      </trkpt>
      <trkpt lat="48.04907" lon="7.57504">
        <ele>192.4</ele>
        <time>2016-01-06T14:02:42Z</time>
      </trkpt>
      <trkpt lat="48.04938" lon="7.57511">
        <ele>190.48</ele>
        <time>2016-01-06T14:03:05Z</time>
      </trkpt>
      <trkpt lat="48.04971" lon="7.57515">
        <ele>189.52</ele>
        <time>2016-01-06T14:03:26Z</time>
      </trkpt>
      <trkpt lat="48.05005" lon="7.57523">
        <ele>190</ele>
        <time>2016-01-06T14:03:51Z</time>
      </trkpt>
      <trkpt lat="48.05033" lon="7.57528">
        <ele>190</ele>
        <time>2016-01-06T14:04:14Z</time>
      </trkpt>
      <trkpt lat="48.05055" lon="7.57532">
        <ele>189.52</ele>
        <time>2016-01-06T14:04:34Z</time>
      </trkpt>
      <trkpt lat="48.05085" lon="7.57538">
        <ele>189.52</ele>
        <time>2016-01-06T14:04:56Z</time>
      </trkpt>
      <trkpt lat="48.05115" lon="7.57539">
        <ele>189.52</ele>
        <time>2016-01-06T14:05:19Z</time>
      </trkpt>
      <trkpt lat="48.05136" lon="7.57541">
        <ele>189.52</ele>
        <time>2016-01-06T14:05:37Z</time>
      </trkpt>
      <trkpt lat="48.05153" lon="7.57557">
        <ele>189.52</ele>
        <time>2016-01-06T14:05:59Z</time>
      </trkpt>
      <trkpt lat="48.05153" lon="7.57566">
        <ele>189.04</ele>
        <time>2016-01-06T14:06:24Z</time>
      </trkpt>
      <trkpt lat="48.0515" lon="7.57574">
        <ele>189.52</ele>
        <time>2016-01-06T14:07:48Z</time>
      </trkpt>
      <trkpt lat="48.05148" lon="7.5759">
        <ele>189.04</ele>
        <time>2016-01-06T14:08:07Z</time>
      </trkpt>
      <trkpt lat="48.05149" lon="7.57606">
        <ele>189.04</ele>
        <time>2016-01-06T14:08:27Z</time>
      </trkpt>
      <trkpt lat="48.05147" lon="7.57611">
        <ele>189.04</ele>
        <time>2016-01-06T14:08:28Z</time>
      </trkpt>
      <trkpt lat="48.05099" lon="7.5763">
        <ele>189.04</ele>
        <time>2016-01-06T14:08:50Z</time>
      </trkpt>
      <trkpt lat="48.05072" lon="7.57625">
        <ele>189.04</ele>
        <time>2016-01-06T14:09:14Z</time>
      </trkpt>
      <trkpt lat="48.05037" lon="7.57624">
        <ele>189.04</ele>
        <time>2016-01-06T14:09:37Z</time>
      </trkpt>
      <trkpt lat="48.05016" lon="7.57625">
        <ele>189.52</ele>
        <time>2016-01-06T14:10:00Z</time>
      </trkpt>
      <trkpt lat="48.05027" lon="7.57666">
        <ele>189.04</ele>
        <time>2016-01-06T14:10:22Z</time>
      </trkpt>
      <trkpt lat="48.0503" lon="7.57699">
        <ele>189.52</ele>
        <time>2016-01-06T14:10:45Z</time>
      </trkpt>
      <trkpt lat="48.05033" lon="7.57735">
        <ele>189.04</ele>
        <time>2016-01-06T14:11:09Z</time>
      </trkpt>
      <trkpt lat="48.05034" lon="7.57781">
        <ele>189.52</ele>
        <time>2016-01-06T14:11:35Z</time>
      </trkpt>
      <trkpt lat="48.05029" lon="7.57821">
        <ele>189.52</ele>
        <time>2016-01-06T14:12:00Z</time>
      </trkpt>
      <trkpt lat="48.05028" lon="7.57859">
        <ele>189.52</ele>
        <time>2016-01-06T14:12:26Z</time>
      </trkpt>
      <trkpt lat="48.05031" lon="7.57882">
        <ele>190.48</ele>
        <time>2016-01-06T14:12:48Z</time>
      </trkpt>
      <trkpt lat="48.05036" lon="7.57881">
        <ele>190</ele>
        <time>2016-01-06T14:13:12Z</time>
      </trkpt>
      <trkpt lat="48.05038" lon="7.5788">
        <ele>190</ele>
        <time>2016-01-06T14:13:35Z</time>
      </trkpt>
      <trkpt lat="48.05035" lon="7.5789">
        <ele>189.52</ele>
        <time>2016-01-06T14:14:40Z</time>
      </trkpt>
      <trkpt lat="48.05018" lon="7.57895">
        <ele>190.48</ele>
        <time>2016-01-06T14:14:52Z</time>
      </trkpt>
      <trkpt lat="48.05007" lon="7.57891">
        <ele>190.48</ele>
        <time>2016-01-06T14:15:12Z</time>
      </trkpt>
      <trkpt lat="48.04993" lon="7.57891">
        <ele>190.48</ele>
        <time>2016-01-06T14:15:26Z</time>
      </trkpt>
      <trkpt lat="48.04969" lon="7.57883">
        <ele>190.48</ele>
        <time>2016-01-06T14:15:50Z</time>
      </trkpt>
      <trkpt lat="48.04945" lon="7.57872">
        <ele>190.48</ele>
        <time>2016-01-06T14:16:14Z</time>
      </trkpt>
      <trkpt lat="48.04918" lon="7.57864">
        <ele>190.48</ele>
        <time>2016-01-06T14:16:39Z</time>
      </trkpt>
      <trkpt lat="48.04894" lon="7.57852">
        <ele>190.96</ele>
        <time>2016-01-06T14:17:04Z</time>
      </trkpt>
      <trkpt lat="48.04865" lon="7.57853">
        <ele>190.48</ele>
        <time>2016-01-06T14:17:31Z</time>
      </trkpt>
      <trkpt lat="48.04846" lon="7.57867">
        <ele>189.04</ele>
        <time>2016-01-06T14:17:52Z</time>
      </trkpt>
      <trkpt lat="48.04829" lon="7.57883">
        <ele>189.04</ele>
        <time>2016-01-06T14:18:14Z</time>
      </trkpt>
      <trkpt lat="48.04804" lon="7.5788">
        <ele>189.04</ele>
        <time>2016-01-06T14:18:35Z</time>
      </trkpt>
      <trkpt lat="48.04784" lon="7.5786">
        <ele>189.52</ele>
        <time>2016-01-06T14:18:57Z</time>
      </trkpt>
      <trkpt lat="48.04766" lon="7.57842">
        <ele>189.04</ele>
        <time>2016-01-06T14:19:18Z</time>
      </trkpt>
      <trkpt lat="48.04748" lon="7.5783">
        <ele>190</ele>
        <time>2016-01-06T14:19:40Z</time>
      </trkpt>
      <trkpt lat="48.04727" lon="7.57809">
        <ele>189.04</ele>
        <time>2016-01-06T14:20:01Z</time>
      </trkpt>
      <trkpt lat="48.04702" lon="7.57789">
        <ele>189.52</ele>
        <time>2016-01-06T14:20:26Z</time>
      </trkpt>
      <trkpt lat="48.0468" lon="7.57769">
        <ele>189.52</ele>
        <time>2016-01-06T14:20:48Z</time>
      </trkpt>
      <trkpt lat="48.04663" lon="7.57749">
        <ele>188.56</ele>
        <time>2016-01-06T14:21:09Z</time>
      </trkpt>
      <trkpt lat="48.0464" lon="7.57728">
        <ele>188.56</ele>
        <time>2016-01-06T14:21:28Z</time>
      </trkpt>
      <trkpt lat="48.04633" lon="7.5772">
        <ele>188.56</ele>
        <time>2016-01-06T14:21:36Z</time>
      </trkpt>
      <trkpt lat="48.04609" lon="7.57703">
        <ele>189.04</ele>
        <time>2016-01-06T14:21:56Z</time>
      </trkpt>
      <trkpt lat="48.0459" lon="7.57684">
        <ele>188.56</ele>
        <time>2016-01-06T14:22:15Z</time>
      </trkpt>
      <trkpt lat="48.04566" lon="7.57668">
        <ele>188.56</ele>
        <time>2016-01-06T14:22:35Z</time>
      </trkpt>
      <trkpt lat="48.04546" lon="7.57652">
        <ele>188.56</ele>
        <time>2016-01-06T14:22:55Z</time>
      </trkpt>
      <trkpt lat="48.04521" lon="7.5763">
        <ele>187.59</ele>
        <time>2016-01-06T14:23:18Z</time>
      </trkpt>
      <trkpt lat="48.04495" lon="7.57613">
        <ele>187.59</ele>
        <time>2016-01-06T14:23:42Z</time>
      </trkpt>
      <trkpt lat="48.04469" lon="7.57593">
        <ele>188.56</ele>
        <time>2016-01-06T14:24:07Z</time>
      </trkpt>
      <trkpt lat="48.04444" lon="7.57581">
        <ele>188.56</ele>
        <time>2016-01-06T14:24:31Z</time>
      </trkpt>
      <trkpt lat="48.04418" lon="7.57581">
        <ele>187.59</ele>
        <time>2016-01-06T14:24:56Z</time>
      </trkpt>
      <trkpt lat="48.04392" lon="7.57584">
        <ele>188.08</ele>
        <time>2016-01-06T14:25:18Z</time>
      </trkpt>
      <trkpt lat="48.0438" lon="7.57587">
        <ele>189.04</ele>
        <time>2016-01-06T14:25:42Z</time>
      </trkpt>
      <trkpt lat="48.04378" lon="7.57589">
        <ele>188.56</ele>
        <time>2016-01-06T14:26:25Z</time>
      </trkpt>
      <trkpt lat="48.04375" lon="7.57593">
        <ele>188.56</ele>
        <time>2016-01-06T14:26:29Z</time>
      </trkpt>
      <trkpt lat="48.0436" lon="7.57612">
        <ele>187.59</ele>
        <time>2016-01-06T14:26:53Z</time>
      </trkpt>
      <trkpt lat="48.04352" lon="7.57589">
        <ele>188.56</ele>
        <time>2016-01-06T14:27:11Z</time>
      </trkpt>
      <trkpt lat="48.0434" lon="7.57591">
        <ele>188.56</ele>
        <time>2016-01-06T14:27:26Z</time>
      </trkpt>
      <trkpt lat="48.04315" lon="7.57597">
        <ele>188.08</ele>
        <time>2016-01-06T14:27:48Z</time>
      </trkpt>
      <trkpt lat="48.04297" lon="7.57596">
        <ele>188.08</ele>
        <time>2016-01-06T14:28:07Z</time>
      </trkpt>
      <trkpt lat="48.04271" lon="7.57597">
        <ele>187.59</ele>
        <time>2016-01-06T14:28:30Z</time>
      </trkpt>
      <trkpt lat="48.04245" lon="7.57598">
        <ele>188.08</ele>
        <time>2016-01-06T14:28:54Z</time>
      </trkpt>
      <trkpt lat="48.04215" lon="7.57602">
        <ele>188.08</ele>
        <time>2016-01-06T14:29:17Z</time>
      </trkpt>
      <trkpt lat="48.04202" lon="7.57601">
        <ele>188.08</ele>
        <time>2016-01-06T14:29:28Z</time>
      </trkpt>
      <trkpt lat="48.04196" lon="7.57601">
        <ele>188.08</ele>
        <time>2016-01-06T14:29:35Z</time>
      </trkpt>
      <trkpt lat="48.04167" lon="7.57602">
        <ele>187.59</ele>
        <time>2016-01-06T14:30:03Z</time>
      </trkpt>
      <trkpt lat="48.04136" lon="7.57605">
        <ele>188.08</ele>
        <time>2016-01-06T14:30:29Z</time>
      </trkpt>
      <trkpt lat="48.04113" lon="7.57604">
        <ele>187.59</ele>
        <time>2016-01-06T14:30:51Z</time>
      </trkpt>
      <trkpt lat="48.04086" lon="7.57608">
        <ele>188.56</ele>
        <time>2016-01-06T14:31:14Z</time>
      </trkpt>
      <trkpt lat="48.0408" lon="7.57607">
        <ele>188.56</ele>
        <time>2016-01-06T14:31:20Z</time>
      </trkpt>
      <trkpt lat="48.04048" lon="7.5761">
        <ele>188.08</ele>
        <time>2016-01-06T14:31:45Z</time>
      </trkpt>
      <trkpt lat="48.04032" lon="7.57644">
        <ele>187.59</ele>
        <time>2016-01-06T14:32:09Z</time>
      </trkpt>
      <trkpt lat="48.04031" lon="7.57667">
        <ele>188.56</ele>
        <time>2016-01-06T14:32:22Z</time>
      </trkpt>
      <trkpt lat="48.04037" lon="7.5771">
        <ele>187.11</ele>
        <time>2016-01-06T14:32:47Z</time>
      </trkpt>
      <trkpt lat="48.04038" lon="7.57719">
        <ele>187.11</ele>
        <time>2016-01-06T14:32:53Z</time>
      </trkpt>
      <trkpt lat="48.0403" lon="7.57762">
        <ele>188.56</ele>
        <time>2016-01-06T14:33:21Z</time>
      </trkpt>
      <trkpt lat="48.04022" lon="7.57775">
        <ele>188.56</ele>
        <time>2016-01-06T14:33:39Z</time>
      </trkpt>
      <trkpt lat="48.04007" lon="7.57792">
        <ele>188.08</ele>
        <time>2016-01-06T14:34:01Z</time>
      </trkpt>
      <trkpt lat="48.03983" lon="7.57819">
        <ele>188.08</ele>
        <time>2016-01-06T14:34:26Z</time>
      </trkpt>
      <trkpt lat="48.03973" lon="7.57831">
        <ele>188.08</ele>
        <time>2016-01-06T14:34:39Z</time>
      </trkpt>
      <trkpt lat="48.03956" lon="7.57859">
        <ele>187.59</ele>
        <time>2016-01-06T14:35:04Z</time>
      </trkpt>
      <trkpt lat="48.03928" lon="7.5788">
        <ele>189.04</ele>
        <time>2016-01-06T14:35:30Z</time>
      </trkpt>
      <trkpt lat="48.0391" lon="7.57896">
        <ele>188.56</ele>
        <time>2016-01-06T14:35:50Z</time>
      </trkpt>
      <trkpt lat="48.03871" lon="7.57921">
        <ele>188.56</ele>
        <time>2016-01-06T14:36:19Z</time>
      </trkpt>
      <trkpt lat="48.03846" lon="7.5794">
        <ele>189.04</ele>
        <time>2016-01-06T14:36:45Z</time>
      </trkpt>
      <trkpt lat="48.03815" lon="7.57964">
        <ele>189.04</ele>
        <time>2016-01-06T14:37:12Z</time>
      </trkpt>
      <trkpt lat="48.03799" lon="7.5798">
        <ele>188.56</ele>
        <time>2016-01-06T14:37:35Z</time>
      </trkpt>
      <trkpt lat="48.03788" lon="7.57996">
        <ele>189.52</ele>
        <time>2016-01-06T14:38:01Z</time>
      </trkpt>
      <trkpt lat="48.03793" lon="7.57991">
        <ele>189.52</ele>
        <time>2016-01-06T14:38:28Z</time>
      </trkpt>
      <trkpt lat="48.03792" lon="7.57985">
        <ele>189.52</ele>
        <time>2016-01-06T14:39:32Z</time>
      </trkpt>
      <trkpt lat="48.03784" lon="7.57994">
        <ele>188.56</ele>
        <time>2016-01-06T14:40:00Z</time>
      </trkpt>
      <trkpt lat="48.03764" lon="7.58023">
        <ele>189.04</ele>
        <time>2016-01-06T14:40:23Z</time>
      </trkpt>
      <trkpt lat="48.03733" lon="7.58052">
        <ele>190</ele>
        <time>2016-01-06T14:40:51Z</time>
      </trkpt>
      <trkpt lat="48.03726" lon="7.58053">
        <ele>188.56</ele>
        <time>2016-01-06T14:40:58Z</time>
      </trkpt>
      <trkpt lat="48.03687" lon="7.58059">
        <ele>189.04</ele>
        <time>2016-01-06T14:41:27Z</time>
      </trkpt>
      <trkpt lat="48.03664" lon="7.58057">
        <ele>189.52</ele>
        <time>2016-01-06T14:41:46Z</time>
      </trkpt>
      <trkpt lat="48.03639" lon="7.58038">
        <ele>189.52</ele>
        <time>2016-01-06T14:42:12Z</time>
      </trkpt>
      <trkpt lat="48.03625" lon="7.58024">
        <ele>190.48</ele>
        <time>2016-01-06T14:42:27Z</time>
      </trkpt>
      <trkpt lat="48.03599" lon="7.58001">
        <ele>191.44</ele>
        <time>2016-01-06T14:42:54Z</time>
      </trkpt>
      <trkpt lat="48.03577" lon="7.57993">
        <ele>190.48</ele>
        <time>2016-01-06T14:43:15Z</time>
      </trkpt>
      <trkpt lat="48.0355" lon="7.58002">
        <ele>190.96</ele>
        <time>2016-01-06T14:43:40Z</time>
      </trkpt>
      <trkpt lat="48.03533" lon="7.58009">
        <ele>190</ele>
        <time>2016-01-06T14:43:59Z</time>
      </trkpt>
      <trkpt lat="48.03518" lon="7.58014">
        <ele>190.48</ele>
        <time>2016-01-06T14:44:27Z</time>
      </trkpt>
      <trkpt lat="48.03507" lon="7.58018">
        <ele>190</ele>
        <time>2016-01-06T14:44:57Z</time>
      </trkpt>
      <trkpt lat="48.03488" lon="7.58018">
        <ele>189.52</ele>
        <time>2016-01-06T14:45:16Z</time>
      </trkpt>
      <trkpt lat="48.03481" lon="7.58014">
        <ele>189.52</ele>
        <time>2016-01-06T14:45:23Z</time>
      </trkpt>
      <trkpt lat="48.03459" lon="7.57977">
        <ele>190</ele>
        <time>2016-01-06T14:45:49Z</time>
      </trkpt>
      <trkpt lat="48.03439" lon="7.57947">
        <ele>190</ele>
        <time>2016-01-06T14:46:14Z</time>
      </trkpt>
      <trkpt lat="48.0343" lon="7.57924">
        <ele>190.96</ele>
        <time>2016-01-06T14:46:40Z</time>
      </trkpt>
      <trkpt lat="48.03406" lon="7.57892">
        <ele>191.44</ele>
        <time>2016-01-06T14:47:01Z</time>
      </trkpt>
      <trkpt lat="48.03395" lon="7.57873">
        <ele>191.44</ele>
        <time>2016-01-06T14:47:20Z</time>
      </trkpt>
      <trkpt lat="48.03395" lon="7.57869">
        <ele>191.92</ele>
        <time>2016-01-06T14:47:23Z</time>
      </trkpt>
      <trkpt lat="48.0338" lon="7.57828">
        <ele>192.4</ele>
        <time>2016-01-06T14:47:50Z</time>
      </trkpt>
      <trkpt lat="48.03376" lon="7.57827">
        <ele>192.4</ele>
        <time>2016-01-06T14:47:54Z</time>
      </trkpt>
      <trkpt lat="48.03354" lon="7.57834">
        <ele>193.36</ele>
        <time>2016-01-06T14:48:18Z</time>
      </trkpt>
      <trkpt lat="48.03334" lon="7.5784">
        <ele>193.84</ele>
        <time>2016-01-06T14:48:42Z</time>
      </trkpt>
      <trkpt lat="48.03328" lon="7.5784">
        <ele>193.84</ele>
        <time>2016-01-06T14:48:47Z</time>
      </trkpt>
      <trkpt lat="48.03309" lon="7.57858">
        <ele>195.28</ele>
        <time>2016-01-06T14:49:11Z</time>
      </trkpt>
      <trkpt lat="48.03301" lon="7.57873">
        <ele>197.69</ele>
        <time>2016-01-06T14:49:33Z</time>
      </trkpt>
      <trkpt lat="48.03279" lon="7.57885">
        <ele>199.13</ele>
        <time>2016-01-06T14:49:58Z</time>
      </trkpt>
      <trkpt lat="48.03273" lon="7.57883">
        <ele>202.49</ele>
        <time>2016-01-06T14:50:07Z</time>
      </trkpt>
      <trkpt lat="48.03251" lon="7.57884">
        <ele>204.42</ele>
        <time>2016-01-06T14:50:26Z</time>
      </trkpt>
      <trkpt lat="48.03226" lon="7.5789">
        <ele>206.34</ele>
        <time>2016-01-06T14:50:51Z</time>
      </trkpt>
      <trkpt lat="48.03223" lon="7.57892">
        <ele>206.34</ele>
        <time>2016-01-06T14:50:53Z</time>
      </trkpt>
      <trkpt lat="48.03212" lon="7.57893">
        <ele>210.19</ele>
        <time>2016-01-06T14:51:08Z</time>
      </trkpt>
      <trkpt lat="48.03203" lon="7.57894">
        <ele>213.55</ele>
        <time>2016-01-06T14:51:21Z</time>
      </trkpt>
      <trkpt lat="48.03189" lon="7.57894">
        <ele>216.91</ele>
        <time>2016-01-06T14:51:37Z</time>
      </trkpt>
      <trkpt lat="48.03166" lon="7.5791">
        <ele>220.28</ele>
        <time>2016-01-06T14:51:49Z</time>
      </trkpt>
      <trkpt lat="48.0316" lon="7.57912">
        <ele>219.8</ele>
        <time>2016-01-06T14:51:55Z</time>
      </trkpt>
      <trkpt lat="48.03141" lon="7.57898">
        <ele>222.68</ele>
        <time>2016-01-06T14:52:19Z</time>
      </trkpt>
      <trkpt lat="48.03141" lon="7.57905">
        <ele>221.72</ele>
        <time>2016-01-06T14:52:38Z</time>
      </trkpt>
      <trkpt lat="48.0313" lon="7.57907">
        <ele>222.68</ele>
        <time>2016-01-06T14:53:04Z</time>
      </trkpt>
      <trkpt lat="48.03111" lon="7.57918">
        <ele>222.2</ele>
        <time>2016-01-06T14:53:27Z</time>
      </trkpt>
      <trkpt lat="48.03103" lon="7.57919">
        <ele>219.32</ele>
        <time>2016-01-06T14:53:34Z</time>
      </trkpt>
      <trkpt lat="48.03083" lon="7.57936">
        <ele>221.72</ele>
        <time>2016-01-06T14:53:51Z</time>
      </trkpt>
      <trkpt lat="48.0307" lon="7.5795">
        <ele>223.16</ele>
        <time>2016-01-06T14:54:05Z</time>
      </trkpt>
      <trkpt lat="48.03066" lon="7.57951">
        <ele>223.64</ele>
        <time>2016-01-06T14:54:09Z</time>
      </trkpt>
      <trkpt lat="48.03041" lon="7.57963">
        <ele>223.64</ele>
        <time>2016-01-06T14:54:30Z</time>
      </trkpt>
      <trkpt lat="48.03018" lon="7.57973">
        <ele>224.12</ele>
        <time>2016-01-06T14:54:49Z</time>
      </trkpt>
      <trkpt lat="48.03006" lon="7.57977">
        <ele>225.09</ele>
        <time>2016-01-06T14:55:09Z</time>
      </trkpt>
      <trkpt lat="48.0302" lon="7.5798">
        <ele>224.61</ele>
        <time>2016-01-06T14:55:29Z</time>
      </trkpt>
      <trkpt lat="48.03033" lon="7.57994">
        <ele>224.61</ele>
        <time>2016-01-06T14:55:44Z</time>
      </trkpt>
      <trkpt lat="48.0304" lon="7.58007">
        <ele>224.12</ele>
        <time>2016-01-06T14:55:51Z</time>
      </trkpt>
      <trkpt lat="48.03044" lon="7.58036">
        <ele>223.64</ele>
        <time>2016-01-06T14:56:09Z</time>
      </trkpt>
      <trkpt lat="48.03044" lon="7.58037">
        <ele>223.64</ele>
        <time>2016-01-06T14:56:10Z</time>
      </trkpt>
      <trkpt lat="48.03046" lon="7.58047">
        <ele>223.64</ele>
        <time>2016-01-06T14:56:32Z</time>
      </trkpt>
      <trkpt lat="48.03042" lon="7.5804">
        <ele>224.12</ele>
        <time>2016-01-06T14:57:17Z</time>
      </trkpt>
      <trkpt lat="48.03042" lon="7.58039">
        <ele>224.12</ele>
        <time>2016-01-06T14:57:22Z</time>
      </trkpt>
      <trkpt lat="48.03035" lon="7.58006">
        <ele>224.61</ele>
        <time>2016-01-06T14:57:41Z</time>
      </trkpt>
      <trkpt lat="48.03025" lon="7.57984">
        <ele>225.09</ele>
        <time>2016-01-06T14:57:58Z</time>
      </trkpt>
      <trkpt lat="48.03013" lon="7.57974">
        <ele>225.09</ele>
        <time>2016-01-06T14:58:16Z</time>
      </trkpt>
      <trkpt lat="48.02992" lon="7.57975">
        <ele>225.09</ele>
        <time>2016-01-06T14:58:40Z</time>
      </trkpt>
      <trkpt lat="48.02978" lon="7.57972">
        <ele>224.61</ele>
        <time>2016-01-06T14:59:02Z</time>
      </trkpt>
      <trkpt lat="48.02976" lon="7.57972">
        <ele>224.12</ele>
        <time>2016-01-06T14:59:26Z</time>
      </trkpt>
      <trkpt lat="48.02971" lon="7.57976">
        <ele>224.61</ele>
        <time>2016-01-06T14:59:51Z</time>
      </trkpt>
      <trkpt lat="48.02974" lon="7.57975">
        <ele>224.12</ele>
        <time>2016-01-06T15:00:12Z</time>
      </trkpt>
      <trkpt lat="48.02979" lon="7.5797">
        <ele>224.12</ele>
        <time>2016-01-06T15:00:37Z</time>
      </trkpt>
      <trkpt lat="48.02983" lon="7.5797">
        <ele>224.12</ele>
        <time>2016-01-06T15:01:04Z</time>
      </trkpt>
      <trkpt lat="48.0298" lon="7.57972">
        <ele>224.12</ele>
        <time>2016-01-06T15:01:11Z</time>
      </trkpt>
      <trkpt lat="48.0296" lon="7.57977">
        <ele>223.64</ele>
        <time>2016-01-06T15:01:32Z</time>
      </trkpt>
      <trkpt lat="48.02938" lon="7.57986">
        <ele>223.64</ele>
        <time>2016-01-06T15:01:57Z</time>
      </trkpt>
      <trkpt lat="48.02939" lon="7.57987">
        <ele>223.64</ele>
        <time>2016-01-06T15:02:33Z</time>
      </trkpt>
      <trkpt lat="48.02939" lon="7.57987">
        <ele>223.64</ele>
        <time>2016-01-06T15:03:04Z</time>
      </trkpt>
      <trkpt lat="48.02937" lon="7.57976">
        <ele>223.64</ele>
        <time>2016-01-06T15:03:24Z</time>
      </trkpt>
      <trkpt lat="48.02934" lon="7.57954">
        <ele>223.64</ele>
        <time>2016-01-06T15:03:37Z</time>
      </trkpt>
      <trkpt lat="48.02917" lon="7.57943">
        <ele>223.64</ele>
        <time>2016-01-06T15:04:03Z</time>
      </trkpt>
      <trkpt lat="48.02901" lon="7.5794">
        <ele>224.12</ele>
        <time>2016-01-06T15:04:28Z</time>
      </trkpt>
      <trkpt lat="48.02905" lon="7.57944">
        <ele>223.64</ele>
        <time>2016-01-06T15:09:04Z</time>
      </trkpt>
      <trkpt lat="48.02918" lon="7.57943">
        <ele>223.16</ele>
        <time>2016-01-06T15:09:24Z</time>
      </trkpt>
      <trkpt lat="48.02923" lon="7.57919">
        <ele>223.16</ele>
        <time>2016-01-06T15:09:41Z</time>
      </trkpt>
      <trkpt lat="48.02931" lon="7.57922">
        <ele>223.16</ele>
        <time>2016-01-06T15:10:29Z</time>
      </trkpt>
      <trkpt lat="48.02927" lon="7.57928">
        <ele>223.16</ele>
        <time>2016-01-06T15:10:38Z</time>
      </trkpt>
      <trkpt lat="48.02904" lon="7.57923">
        <ele>223.16</ele>
        <time>2016-01-06T15:10:59Z</time>
      </trkpt>
      <trkpt lat="48.02899" lon="7.57923">
        <ele>223.16</ele>
        <time>2016-01-06T15:11:25Z</time>
      </trkpt>
      <trkpt lat="48.02895" lon="7.57924">
        <ele>223.16</ele>
        <time>2016-01-06T15:11:51Z</time>
      </trkpt>
      <trkpt lat="48.02894" lon="7.57923">
        <ele>222.68</ele>
        <time>2016-01-06T15:12:35Z</time>
      </trkpt>
      <trkpt lat="48.02898" lon="7.57922">
        <ele>223.16</ele>
        <time>2016-01-06T15:13:00Z</time>
      </trkpt>
      <trkpt lat="48.02903" lon="7.57919">
        <ele>223.16</ele>
        <time>2016-01-06T15:13:20Z</time>
      </trkpt>
      <trkpt lat="48.02903" lon="7.57919">
        <ele>222.68</ele>
        <time>2016-01-06T15:14:29Z</time>
      </trkpt>
      <trkpt lat="48.02904" lon="7.57919">
        <ele>223.64</ele>
        <time>2016-01-06T15:16:50Z</time>
      </trkpt>
      <trkpt lat="48.02904" lon="7.57919">
        <ele>219.8</ele>
        <time>2016-01-06T15:16:52Z</time>
      </trkpt>
      <trkpt lat="48.02904" lon="7.57919">
        <ele>224.12</ele>
        <time>2016-01-06T15:16:53Z</time>
      </trkpt>
      <trkpt lat="48.02904" lon="7.57919">
        <ele>220.76</ele>
        <time>2016-01-06T15:16:54Z</time>
      </trkpt>
      <trkpt lat="48.02904" lon="7.57919">
        <ele>223.64</ele>
        <time>2016-01-06T15:16:55Z</time>
      </trkpt>
      <trkpt lat="48.02907" lon="7.57923">
        <ele>223.16</ele>
        <time>2016-01-06T15:17:46Z</time>
      </trkpt>
      <trkpt lat="48.02917" lon="7.57929">
        <ele>223.16</ele>
        <time>2016-01-06T15:18:04Z</time>
      </trkpt>
      <trkpt lat="48.02922" lon="7.57931">
        <ele>222.68</ele>
        <time>2016-01-06T15:18:43Z</time>
      </trkpt>
      <trkpt lat="48.02922" lon="7.57932">
        <ele>222.68</ele>
        <time>2016-01-06T15:19:04Z</time>
      </trkpt>
      <trkpt lat="48.02933" lon="7.57933">
        <ele>223.16</ele>
        <time>2016-01-06T15:19:32Z</time>
      </trkpt>
      <trkpt lat="48.02941" lon="7.57923">
        <ele>222.68</ele>
        <time>2016-01-06T15:19:54Z</time>
      </trkpt>
      <trkpt lat="48.02948" lon="7.57917">
        <ele>222.68</ele>
        <time>2016-01-06T15:20:03Z</time>
      </trkpt>
      <trkpt lat="48.02965" lon="7.57912">
        <ele>223.16</ele>
        <time>2016-01-06T15:20:22Z</time>
      </trkpt>
      <trkpt lat="48.02974" lon="7.57907">
        <ele>223.64</ele>
        <time>2016-01-06T15:20:43Z</time>
      </trkpt>
      <trkpt lat="48.02971" lon="7.57907">
        <ele>222.68</ele>
        <time>2016-01-06T15:21:07Z</time>
      </trkpt>
      <trkpt lat="48.02952" lon="7.57914">
        <ele>220.28</ele>
        <time>2016-01-06T15:21:31Z</time>
      </trkpt>
      <trkpt lat="48.02945" lon="7.57919">
        <ele>216.91</ele>
        <time>2016-01-06T15:21:53Z</time>
      </trkpt>
      <trkpt lat="48.02937" lon="7.5792">
        <ele>215.95</ele>
        <time>2016-01-06T15:22:03Z</time>
      </trkpt>
      <trkpt lat="48.02928" lon="7.57921">
        <ele>214.03</ele>
        <time>2016-01-06T15:22:25Z</time>
      </trkpt>
      <trkpt lat="48.02894" lon="7.57926">
        <ele>211.15</ele>
        <time>2016-01-06T15:22:51Z</time>
      </trkpt>
      <trkpt lat="48.02881" lon="7.57933">
        <ele>210.19</ele>
        <time>2016-01-06T15:23:11Z</time>
      </trkpt>
      <trkpt lat="48.02871" lon="7.57943">
        <ele>208.74</ele>
        <time>2016-01-06T15:23:30Z</time>
      </trkpt>
      <trkpt lat="48.02874" lon="7.57944">
        <ele>208.26</ele>
        <time>2016-01-06T15:23:33Z</time>
      </trkpt>
      <trkpt lat="48.0289" lon="7.57968">
        <ele>206.82</ele>
        <time>2016-01-06T15:23:56Z</time>
      </trkpt>
      <trkpt lat="48.02884" lon="7.5801">
        <ele>203.46</ele>
        <time>2016-01-06T15:24:19Z</time>
      </trkpt>
      <trkpt lat="48.02879" lon="7.5805">
        <ele>202.01</ele>
        <time>2016-01-06T15:24:42Z</time>
      </trkpt>
      <trkpt lat="48.02886" lon="7.58087">
        <ele>197.21</ele>
        <time>2016-01-06T15:25:04Z</time>
      </trkpt>
      <trkpt lat="48.02883" lon="7.58089">
        <ele>193.84</ele>
        <time>2016-01-06T15:25:05Z</time>
      </trkpt>
      <trkpt lat="48.02882" lon="7.5809">
        <ele>203.46</ele>
        <time>2016-01-06T15:25:06Z</time>
      </trkpt>
      <trkpt lat="48.02882" lon="7.58091">
        <ele>200.09</ele>
        <time>2016-01-06T15:25:07Z</time>
      </trkpt>
      <trkpt lat="48.02882" lon="7.58094">
        <ele>197.69</ele>
        <time>2016-01-06T15:25:23Z</time>
      </trkpt>
      <trkpt lat="48.0288" lon="7.58099">
        <ele>194.8</ele>
        <time>2016-01-06T15:25:35Z</time>
      </trkpt>
      <trkpt lat="48.02873" lon="7.58104">
        <ele>191.44</ele>
        <time>2016-01-06T15:25:52Z</time>
      </trkpt>
      <trkpt lat="48.02867" lon="7.58116">
        <ele>190.48</ele>
        <time>2016-01-06T15:26:07Z</time>
      </trkpt>
      <trkpt lat="48.02853" lon="7.58129">
        <ele>190.48</ele>
        <time>2016-01-06T15:26:25Z</time>
      </trkpt>
      <trkpt lat="48.02831" lon="7.58149">
        <ele>189.04</ele>
        <time>2016-01-06T15:26:50Z</time>
      </trkpt>
      <trkpt lat="48.02816" lon="7.58163">
        <ele>189.52</ele>
        <time>2016-01-06T15:27:05Z</time>
      </trkpt>
      <trkpt lat="48.02807" lon="7.5814">
        <ele>189.52</ele>
        <time>2016-01-06T15:27:25Z</time>
      </trkpt>
      <trkpt lat="48.02802" lon="7.58108">
        <ele>189.52</ele>
        <time>2016-01-06T15:27:46Z</time>
      </trkpt>
      <trkpt lat="48.02796" lon="7.58084">
        <ele>190</ele>
        <time>2016-01-06T15:28:04Z</time>
      </trkpt>
      <trkpt lat="48.02784" lon="7.58098">
        <ele>190</ele>
        <time>2016-01-06T15:28:23Z</time>
      </trkpt>
      <trkpt lat="48.02781" lon="7.58101">
        <ele>190.96</ele>
        <time>2016-01-06T15:28:26Z</time>
      </trkpt>
      <trkpt lat="48.02777" lon="7.58103">
        <ele>190.48</ele>
        <time>2016-01-06T15:28:29Z</time>
      </trkpt>
      <trkpt lat="48.02761" lon="7.58108">
        <ele>190</ele>
        <time>2016-01-06T15:28:46Z</time>
      </trkpt>
      <trkpt lat="48.02743" lon="7.58118">
        <ele>190.48</ele>
        <time>2016-01-06T15:29:04Z</time>
      </trkpt>
      <trkpt lat="48.02728" lon="7.58133">
        <ele>190.48</ele>
        <time>2016-01-06T15:29:25Z</time>
      </trkpt>
      <trkpt lat="48.02712" lon="7.58144">
        <ele>190.96</ele>
        <time>2016-01-06T15:29:46Z</time>
      </trkpt>
      <trkpt lat="48.02689" lon="7.58156">
        <ele>190.48</ele>
        <time>2016-01-06T15:30:06Z</time>
      </trkpt>
      <trkpt lat="48.02676" lon="7.58166">
        <ele>190.96</ele>
        <time>2016-01-06T15:30:30Z</time>
      </trkpt>
      <trkpt lat="48.02678" lon="7.58176">
        <ele>190.96</ele>
        <time>2016-01-06T15:30:51Z</time>
      </trkpt>
      <trkpt lat="48.02689" lon="7.58208">
        <ele>190.48</ele>
        <time>2016-01-06T15:31:11Z</time>
      </trkpt>
      <trkpt lat="48.0269" lon="7.58244">
        <ele>191.92</ele>
        <time>2016-01-06T15:31:30Z</time>
      </trkpt>
      <trkpt lat="48.02675" lon="7.58253">
        <ele>192.88</ele>
        <time>2016-01-06T15:31:50Z</time>
      </trkpt>
      <trkpt lat="48.02655" lon="7.5826">
        <ele>194.8</ele>
        <time>2016-01-06T15:32:15Z</time>
      </trkpt>
      <trkpt lat="48.02634" lon="7.58258">
        <ele>194.8</ele>
        <time>2016-01-06T15:32:40Z</time>
      </trkpt>
      <trkpt lat="48.02611" lon="7.58258">
        <ele>195.77</ele>
        <time>2016-01-06T15:33:01Z</time>
      </trkpt>
      <trkpt lat="48.02599" lon="7.58263">
        <ele>195.28</ele>
        <time>2016-01-06T15:33:22Z</time>
      </trkpt>
      <trkpt lat="48.02603" lon="7.58277">
        <ele>198.65</ele>
        <time>2016-01-06T15:33:42Z</time>
      </trkpt>
      <trkpt lat="48.02607" lon="7.58304">
        <ele>201.53</ele>
        <time>2016-01-06T15:34:02Z</time>
      </trkpt>
      <trkpt lat="48.02607" lon="7.58319">
        <ele>204.9</ele>
        <time>2016-01-06T15:34:19Z</time>
      </trkpt>
      <trkpt lat="48.02606" lon="7.58323">
        <ele>206.34</ele>
        <time>2016-01-06T15:34:30Z</time>
      </trkpt>
      <trkpt lat="48.02608" lon="7.58333">
        <ele>208.26</ele>
        <time>2016-01-06T15:34:57Z</time>
      </trkpt>
      <trkpt lat="48.02608" lon="7.58336">
        <ele>210.19</ele>
        <time>2016-01-06T15:35:25Z</time>
      </trkpt>
      <trkpt lat="48.02611" lon="7.58347">
        <ele>213.07</ele>
        <time>2016-01-06T15:35:44Z</time>
      </trkpt>
      <trkpt lat="48.02613" lon="7.58367">
        <ele>214.99</ele>
        <time>2016-01-06T15:36:05Z</time>
      </trkpt>
      <trkpt lat="48.02615" lon="7.58366">
        <ele>215.47</ele>
        <time>2016-01-06T15:36:28Z</time>
      </trkpt>
      <trkpt lat="48.02617" lon="7.58368">
        <ele>216.43</ele>
        <time>2016-01-06T15:36:51Z</time>
      </trkpt>
      <trkpt lat="48.02629" lon="7.58361">
        <ele>215.47</ele>
        <time>2016-01-06T15:37:11Z</time>
      </trkpt>
      <trkpt lat="48.02642" lon="7.58354">
        <ele>214.51</ele>
        <time>2016-01-06T15:37:30Z</time>
      </trkpt>
      <trkpt lat="48.02652" lon="7.58352">
        <ele>214.51</ele>
        <time>2016-01-06T15:37:47Z</time>
      </trkpt>
      <trkpt lat="48.02657" lon="7.5835">
        <ele>213.07</ele>
        <time>2016-01-06T15:37:53Z</time>
      </trkpt>
      <trkpt lat="48.02672" lon="7.58348">
        <ele>213.07</ele>
        <time>2016-01-06T15:38:09Z</time>
      </trkpt>
      <trkpt lat="48.02686" lon="7.58355">
        <ele>212.11</ele>
        <time>2016-01-06T15:38:29Z</time>
      </trkpt>
      <trkpt lat="48.02682" lon="7.58351">
        <ele>212.59</ele>
        <time>2016-01-06T15:39:14Z</time>
      </trkpt>
      <trkpt lat="48.02689" lon="7.58345">
        <ele>215.95</ele>
        <time>2016-01-06T15:39:30Z</time>
      </trkpt>
      <trkpt lat="48.02694" lon="7.58341">
        <ele>219.32</ele>
        <time>2016-01-06T15:39:38Z</time>
      </trkpt>
      <trkpt lat="48.02694" lon="7.58333">
        <ele>220.76</ele>
        <time>2016-01-06T15:39:59Z</time>
      </trkpt>
      <trkpt lat="48.02692" lon="7.58329">
        <ele>221.24</ele>
        <time>2016-01-06T15:40:21Z</time>
      </trkpt>
      <trkpt lat="48.02693" lon="7.58322">
        <ele>220.76</ele>
        <time>2016-01-06T15:40:38Z</time>
      </trkpt>
      <trkpt lat="48.02695" lon="7.58317">
        <ele>220.76</ele>
        <time>2016-01-06T15:40:44Z</time>
      </trkpt>
      <trkpt lat="48.02701" lon="7.58313">
        <ele>220.28</ele>
        <time>2016-01-06T15:41:03Z</time>
      </trkpt>
      <trkpt lat="48.02701" lon="7.58311">
        <ele>220.76</ele>
        <time>2016-01-06T15:41:26Z</time>
      </trkpt>
      <trkpt lat="48.02697" lon="7.5831">
        <ele>220.76</ele>
        <time>2016-01-06T15:42:10Z</time>
      </trkpt>
      <trkpt lat="48.02701" lon="7.58309">
        <ele>220.28</ele>
        <time>2016-01-06T15:42:32Z</time>
      </trkpt>
      <trkpt lat="48.027" lon="7.5832">
        <ele>220.28</ele>
        <time>2016-01-06T15:42:53Z</time>
      </trkpt>
      <trkpt lat="48.02696" lon="7.58327">
        <ele>219.8</ele>
        <time>2016-01-06T15:43:10Z</time>
      </trkpt>
      <trkpt lat="48.02697" lon="7.58323">
        <ele>220.28</ele>
        <time>2016-01-06T15:43:38Z</time>
      </trkpt>
      <trkpt lat="48.027" lon="7.58321">
        <ele>220.28</ele>
        <time>2016-01-06T15:44:00Z</time>
      </trkpt>
      <trkpt lat="48.02696" lon="7.58325">
        <ele>220.28</ele>
        <time>2016-01-06T15:44:58Z</time>
      </trkpt>
      <trkpt lat="48.02696" lon="7.58338">
        <ele>216.91</ele>
        <time>2016-01-06T15:45:16Z</time>
      </trkpt>
      <trkpt lat="48.02694" lon="7.58342">
        <ele>214.03</ele>
        <time>2016-01-06T15:45:37Z</time>
      </trkpt>
      <trkpt lat="48.02693" lon="7.58343">
        <ele>213.55</ele>
        <time>2016-01-06T15:45:41Z</time>
      </trkpt>
      <trkpt lat="48.02687" lon="7.58346">
        <ele>211.63</ele>
        <time>2016-01-06T15:46:09Z</time>
      </trkpt>
      <trkpt lat="48.02686" lon="7.58347">
        <ele>212.11</ele>
        <time>2016-01-06T15:46:31Z</time>
      </trkpt>
      <trkpt lat="48.02686" lon="7.58349">
        <ele>212.11</ele>
        <time>2016-01-06T15:46:56Z</time>
      </trkpt>
      <trkpt lat="48.0268" lon="7.5837">
        <ele>211.63</ele>
        <time>2016-01-06T15:47:51Z</time>
      </trkpt>
      <trkpt lat="48.02669" lon="7.58386">
        <ele>210.67</ele>
        <time>2016-01-06T15:48:12Z</time>
      </trkpt>
      <trkpt lat="48.02657" lon="7.58401">
        <ele>207.78</ele>
        <time>2016-01-06T15:48:32Z</time>
      </trkpt>
      <trkpt lat="48.02655" lon="7.58403">
        <ele>207.3</ele>
        <time>2016-01-06T15:48:34Z</time>
      </trkpt>
      <trkpt lat="48.02642" lon="7.58426">
        <ele>204.42</ele>
        <time>2016-01-06T15:48:52Z</time>
      </trkpt>
      <trkpt lat="48.02641" lon="7.58427">
        <ele>204.42</ele>
        <time>2016-01-06T15:48:53Z</time>
      </trkpt>
      <trkpt lat="48.0263" lon="7.58449">
        <ele>202.49</ele>
        <time>2016-01-06T15:49:14Z</time>
      </trkpt>
      <trkpt lat="48.02619" lon="7.58475">
        <ele>199.13</ele>
        <time>2016-01-06T15:49:35Z</time>
      </trkpt>
      <trkpt lat="48.0261" lon="7.58502">
        <ele>196.73</ele>
        <time>2016-01-06T15:49:56Z</time>
      </trkpt>
      <trkpt lat="48.02602" lon="7.58526">
        <ele>193.84</ele>
        <time>2016-01-06T15:50:15Z</time>
      </trkpt>
      <trkpt lat="48.026" lon="7.5854">
        <ele>191.92</ele>
        <time>2016-01-06T15:50:24Z</time>
      </trkpt>
      <trkpt lat="48.02615" lon="7.58562">
        <ele>190.96</ele>
        <time>2016-01-06T15:50:49Z</time>
      </trkpt>
      <trkpt lat="48.02619" lon="7.58563">
        <ele>190.48</ele>
        <time>2016-01-06T15:50:55Z</time>
      </trkpt>
      <trkpt lat="48.02641" lon="7.58557">
        <ele>190</ele>
        <time>2016-01-06T15:51:16Z</time>
      </trkpt>
      <trkpt lat="48.02664" lon="7.58567">
        <ele>189.04</ele>
        <time>2016-01-06T15:51:38Z</time>
      </trkpt>
      <trkpt lat="48.02677" lon="7.58587">
        <ele>189.04</ele>
        <time>2016-01-06T15:51:59Z</time>
      </trkpt>
      <trkpt lat="48.02664" lon="7.58619">
        <ele>188.56</ele>
        <time>2016-01-06T15:52:23Z</time>
      </trkpt>
      <trkpt lat="48.02663" lon="7.5862">
        <ele>189.52</ele>
        <time>2016-01-06T15:52:24Z</time>
      </trkpt>
      <trkpt lat="48.02654" lon="7.58644">
        <ele>189.04</ele>
        <time>2016-01-06T15:52:40Z</time>
      </trkpt>
      <trkpt lat="48.02644" lon="7.58665">
        <ele>188.08</ele>
        <time>2016-01-06T15:52:57Z</time>
      </trkpt>
      <trkpt lat="48.02634" lon="7.58692">
        <ele>188.08</ele>
        <time>2016-01-06T15:53:18Z</time>
      </trkpt>
      <trkpt lat="48.02624" lon="7.58723">
        <ele>188.08</ele>
        <time>2016-01-06T15:53:40Z</time>
      </trkpt>
      <trkpt lat="48.02617" lon="7.58753">
        <ele>187.59</ele>
        <time>2016-01-06T15:54:00Z</time>
      </trkpt>
      <trkpt lat="48.02615" lon="7.58773">
        <ele>188.56</ele>
        <time>2016-01-06T15:54:19Z</time>
      </trkpt>
      <trkpt lat="48.02601" lon="7.58785">
        <ele>188.08</ele>
        <time>2016-01-06T15:54:40Z</time>
      </trkpt>
      <trkpt lat="48.02592" lon="7.58778">
        <ele>184.23</ele>
        <time>2016-01-06T15:54:50Z</time>
      </trkpt>
      <trkpt lat="48.0259" lon="7.58777">
        <ele>188.08</ele>
        <time>2016-01-06T15:54:51Z</time>
      </trkpt>
      <trkpt lat="48.02579" lon="7.58765">
        <ele>186.63</ele>
        <time>2016-01-06T15:55:07Z</time>
      </trkpt>
      <trkpt lat="48.02562" lon="7.58759">
        <ele>187.59</ele>
        <time>2016-01-06T15:55:24Z</time>
      </trkpt>
    </trkseg>
  </trk>
</gpx>